<?xml version="1.0" encoding="ISO-8859-1"?>
<gpx version="1.1" 
creator="Memory-Map 5.4.2.1089 http://www.memory-map.com"
 xmlns:xsi="http://www.w3.org/2001/XMLSchema-instance"
 xmlns="http://www.topografix.com/GPX/1/1"
 xsi:schemaLocation="http://www.topografix.com/GPX/1/1 http://www.topografix.com/GPX/1/1/gpx.xsd">
<trk>
<name>Cwm Llafar Horseshoe</name>
<type>Track</type>
<trkseg>
<trkpt lat="53.1773326715" lon="-4.0479509989"><time>2012-07-14T07:51:28Z</time></trkpt>
<trkpt lat="53.1772508303" lon="-4.0477630019"><ele>220</ele><time>2012-07-14T07:56:43Z</time></trkpt>
<trkpt lat="53.1771331628" lon="-4.0476468325"><ele>221</ele><time>2012-07-14T07:58:55Z</time></trkpt>
<trkpt lat="53.1770103296" lon="-4.0475253344"><ele>221</ele><time>2012-07-14T07:59:16Z</time></trkpt>
<trkpt lat="53.1768918355" lon="-4.0474119981"><ele>220</ele><time>2012-07-14T07:59:32Z</time></trkpt>
<trkpt lat="53.1767733256" lon="-4.0472983321"><ele>219</ele><time>2012-07-14T07:59:45Z</time></trkpt>
<trkpt lat="53.1766393344" lon="-4.0471818328"><ele>219</ele><time>2012-07-14T07:59:57Z</time></trkpt>
<trkpt lat="53.1765038331" lon="-4.0470886668"><ele>219</ele><time>2012-07-14T08:00:08Z</time></trkpt>
<trkpt lat="53.1763828278" lon="-4.0469704986"><ele>219</ele><time>2012-07-14T08:00:18Z</time></trkpt>
<trkpt lat="53.1762608369" lon="-4.0468454997"><ele>218</ele><time>2012-07-14T08:00:31Z</time></trkpt>
<trkpt lat="53.1761506716" lon="-4.0466741681"><ele>218</ele><time>2012-07-14T08:00:41Z</time></trkpt>
<trkpt lat="53.1760581652" lon="-4.0465008338"><ele>218</ele><time>2012-07-14T08:00:51Z</time></trkpt>
<trkpt lat="53.1759608269" lon="-4.0463205020"><ele>218</ele><time>2012-07-14T08:01:04Z</time></trkpt>
<trkpt lat="53.1758393288" lon="-4.0461983323"><ele>217</ele><time>2012-07-14T08:01:14Z</time></trkpt>
<trkpt lat="53.1757236640" lon="-4.0460131685"><ele>217</ele><time>2012-07-14T08:01:24Z</time></trkpt>
<trkpt lat="53.1756214937" lon="-4.0458668351"><ele>216</ele><time>2012-07-14T08:01:36Z</time></trkpt>
<trkpt lat="53.1755421638" lon="-4.0456640005"><ele>216</ele><time>2012-07-14T08:01:47Z</time></trkpt>
<trkpt lat="53.1754745007" lon="-4.0454524994"><ele>216</ele><time>2012-07-14T08:01:57Z</time></trkpt>
<trkpt lat="53.1754344940" lon="-4.0452301661"><ele>216</ele><time>2012-07-14T08:02:08Z</time></trkpt>
<trkpt lat="53.1753901641" lon="-4.0449971676"><ele>216</ele><time>2012-07-14T08:02:20Z</time></trkpt>
<trkpt lat="53.1753338337" lon="-4.0447835008"><ele>216</ele><time>2012-07-14T08:02:32Z</time></trkpt>
<trkpt lat="53.1752740065" lon="-4.0445779999"><ele>216</ele><time>2012-07-14T08:02:45Z</time></trkpt>
<trkpt lat="53.1752075036" lon="-4.0443561673"><ele>216</ele><time>2012-07-14T08:02:56Z</time></trkpt>
<trkpt lat="53.1751359940" lon="-4.0441324989"><ele>216</ele><time>2012-07-14T08:03:06Z</time></trkpt>
<trkpt lat="53.1750779947" lon="-4.0439236681"><ele>216</ele><time>2012-07-14T08:03:16Z</time></trkpt>
<trkpt lat="53.1750273387" lon="-4.0436933319"><ele>216</ele><time>2012-07-14T08:03:28Z</time></trkpt>
<trkpt lat="53.1749693394" lon="-4.0434880018"><ele>216</ele><time>2012-07-14T08:03:38Z</time></trkpt>
<trkpt lat="53.1749118328" lon="-4.0432830016"><ele>217</ele><time>2012-07-14T08:03:49Z</time></trkpt>
<trkpt lat="53.1748498281" lon="-4.0430801670"><ele>217</ele><time>2012-07-14T08:04:00Z</time></trkpt>
<trkpt lat="53.1747596741" lon="-4.0429015001"><ele>217</ele><time>2012-07-14T08:04:14Z</time></trkpt>
<trkpt lat="53.1746483326" lon="-4.0427205006"><ele>217</ele><time>2012-07-14T08:04:24Z</time></trkpt>
<trkpt lat="53.1745646636" lon="-4.0425169984"><ele>216</ele><time>2012-07-14T08:04:38Z</time></trkpt>
<trkpt lat="53.1744504929" lon="-4.0422534982"><ele>216</ele><time>2012-07-14T08:04:48Z</time></trkpt>
<trkpt lat="53.1744264921" lon="-4.0420321663"><ele>217</ele><time>2012-07-14T08:05:00Z</time></trkpt>
<trkpt lat="53.1744621595" lon="-4.0417991678"><ele>217</ele><time>2012-07-14T08:05:16Z</time></trkpt>
<trkpt lat="53.1744138400" lon="-4.0415868322"><ele>217</ele><time>2012-07-14T08:05:27Z</time></trkpt>
<trkpt lat="53.1743093332" lon="-4.0414270004"><ele>218</ele><time>2012-07-14T08:05:39Z</time></trkpt>
<trkpt lat="53.1741823355" lon="-4.0413306673"><ele>219</ele><time>2012-07-14T08:05:55Z</time></trkpt>
<trkpt lat="53.1740691662" lon="-4.0412050009"><ele>220</ele><time>2012-07-14T08:06:07Z</time></trkpt>
<trkpt lat="53.1739978313" lon="-4.0410061677"><ele>221</ele><time>2012-07-14T08:06:22Z</time></trkpt>
<trkpt lat="53.1738921642" lon="-4.0408531666"><ele>222</ele><time>2012-07-14T08:06:35Z</time></trkpt>
<trkpt lat="53.1738163312" lon="-4.0406665007"><ele>223</ele><time>2012-07-14T08:06:48Z</time></trkpt>
<trkpt lat="53.1737416744" lon="-4.0404730002"><ele>225</ele><time>2012-07-14T08:07:01Z</time></trkpt>
<trkpt lat="53.1736991723" lon="-4.0402409991"><ele>227</ele><time>2012-07-14T08:07:13Z</time></trkpt>
<trkpt lat="53.1736923377" lon="-4.0400074999"><ele>230</ele><time>2012-07-14T08:07:27Z</time></trkpt>
<trkpt lat="53.1736088276" lon="-4.0398301681"><ele>231</ele><time>2012-07-14T08:07:44Z</time></trkpt>
<trkpt lat="53.1735105038" lon="-4.0396566669"><ele>232</ele><time>2012-07-14T08:07:58Z</time></trkpt>
<trkpt lat="53.1734191736" lon="-4.0394856652"><ele>233</ele><time>2012-07-14T08:08:14Z</time></trkpt>
<trkpt lat="53.1733095010" lon="-4.0393495003"><ele>234</ele><time>2012-07-14T08:08:31Z</time></trkpt>
<trkpt lat="53.1731760025" lon="-4.0393929998"><ele>234</ele><time>2012-07-14T08:08:43Z</time></trkpt>
<trkpt lat="53.1730366707" lon="-4.0393888315"><ele>234</ele><time>2012-07-14T08:08:57Z</time></trkpt>
<trkpt lat="53.1729106744" lon="-4.0392790000"><ele>235</ele><time>2012-07-14T08:09:13Z</time></trkpt>
<trkpt lat="53.1727706591" lon="-4.0392316659"><ele>236</ele><time>2012-07-14T08:09:25Z</time></trkpt>
<trkpt lat="53.1726384958" lon="-4.0391653339"><ele>238</ele><time>2012-07-14T08:09:38Z</time></trkpt>
<trkpt lat="53.1724998315" lon="-4.0391106685"><ele>243</ele><time>2012-07-14T08:10:05Z</time></trkpt>
<trkpt lat="53.1723636627" lon="-4.0390854994"><ele>243</ele><time>2012-07-14T08:10:18Z</time></trkpt>
<trkpt lat="53.1722386678" lon="-4.0389873346"><ele>245</ele><time>2012-07-14T08:10:33Z</time></trkpt>
<trkpt lat="53.1721289953" lon="-4.0388478319"><ele>247</ele><time>2012-07-14T08:10:48Z</time></trkpt>
<trkpt lat="53.1720094999" lon="-4.0387350003"><ele>248</ele><time>2012-07-14T08:11:02Z</time></trkpt>
<trkpt lat="53.1718863328" lon="-4.0386096676"><ele>251</ele><time>2012-07-14T08:11:19Z</time></trkpt>
<trkpt lat="53.1717653275" lon="-4.0385086656"><ele>252</ele><time>2012-07-14T08:11:33Z</time></trkpt>
<trkpt lat="53.1716598352" lon="-4.0383629998"><ele>255</ele><time>2012-07-14T08:11:57Z</time></trkpt>
<trkpt lat="53.1715266705" lon="-4.0383165002"><ele>258</ele><time>2012-07-14T08:12:17Z</time></trkpt>
<trkpt lat="53.1714011669" lon="-4.0382303317"><ele>262</ele><time>2012-07-14T08:12:38Z</time></trkpt>
<trkpt lat="53.1713671684" lon="-4.0380033334"><ele>265</ele><time>2012-07-14T08:12:58Z</time></trkpt>
<trkpt lat="53.1714011669" lon="-4.0377791683"><ele>272</ele><time>2012-07-14T08:13:53Z</time></trkpt>
<trkpt lat="53.1713591735" lon="-4.0375535011"><ele>273</ele><time>2012-07-14T08:14:08Z</time></trkpt>
<trkpt lat="53.1713158290" lon="-4.0373346686"><ele>273</ele><time>2012-07-14T08:14:26Z</time></trkpt>
<trkpt lat="53.1712985039" lon="-4.0371116678"><ele>274</ele><time>2012-07-14T08:14:41Z</time></trkpt>
<trkpt lat="53.1712279956" lon="-4.0369171659"><ele>274</ele><time>2012-07-14T08:14:52Z</time></trkpt>
<trkpt lat="53.1711105029" lon="-4.0368040005"><ele>275</ele><time>2012-07-14T08:15:06Z</time></trkpt>
<trkpt lat="53.1709818363" lon="-4.0367241661"><ele>276</ele><time>2012-07-14T08:15:26Z</time></trkpt>
<trkpt lat="53.1708981673" lon="-4.0365180016"><ele>277</ele><time>2012-07-14T08:15:44Z</time></trkpt>
<trkpt lat="53.1708063285" lon="-4.0363513350"><ele>279</ele><time>2012-07-14T08:15:59Z</time></trkpt>
<trkpt lat="53.1707173347" lon="-4.0361756682"><ele>280</ele><time>2012-07-14T08:16:16Z</time></trkpt>
<trkpt lat="53.1706658363" lon="-4.0359640002"><ele>281</ele><time>2012-07-14T08:16:35Z</time></trkpt>
<trkpt lat="53.1706415017" lon="-4.0357376655"><ele>282</ele><time>2012-07-14T08:16:52Z</time></trkpt>
<trkpt lat="53.1706138293" lon="-4.0355064988"><ele>284</ele><time>2012-07-14T08:17:10Z</time></trkpt>
<trkpt lat="53.1705580076" lon="-4.0352923314"><ele>285</ele><time>2012-07-14T08:17:23Z</time></trkpt>
<trkpt lat="53.1705320040" lon="-4.0350614985"><ele>286</ele><time>2012-07-14T08:17:38Z</time></trkpt>
<trkpt lat="53.1704806646" lon="-4.0348298351"><ele>288</ele><time>2012-07-14T08:17:53Z</time></trkpt>
<trkpt lat="53.1704164982" lon="-4.0346221685"><ele>289</ele><time>2012-07-14T08:18:06Z</time></trkpt>
<trkpt lat="53.1703918298" lon="-4.0343893329"><ele>290</ele><time>2012-07-14T08:18:19Z</time></trkpt>
<trkpt lat="53.1703713258" lon="-4.0341570020"><ele>292</ele><time>2012-07-14T08:18:35Z</time></trkpt>
<trkpt lat="53.1703476588" lon="-4.0339293321"><ele>294</ele><time>2012-07-14T08:18:52Z</time></trkpt>
<trkpt lat="53.1701581637" lon="-4.0338576674"><ele>295</ele><time>2012-07-14T08:19:02Z</time></trkpt>
<trkpt lat="53.1702953339" lon="-4.0338658333"><ele>296</ele><time>2012-07-14T08:19:15Z</time></trkpt>
<trkpt lat="53.1702044964" lon="-4.0336989999"><ele>298</ele><time>2012-07-14T08:19:55Z</time></trkpt>
<trkpt lat="53.1701161702" lon="-4.0334991654"><ele>299</ele><time>2012-07-14T08:20:09Z</time></trkpt>
<trkpt lat="53.1700569948" lon="-4.0332825005"><ele>301</ele><time>2012-07-14T08:20:24Z</time></trkpt>
<trkpt lat="53.1699786663" lon="-4.0330970009"><ele>302</ele><time>2012-07-14T08:20:36Z</time></trkpt>
<trkpt lat="53.1699130058" lon="-4.0328916669"><ele>304</ele><time>2012-07-14T08:20:49Z</time></trkpt>
<trkpt lat="53.1698056698" lon="-4.0327421665"><ele>310</ele><time>2012-07-14T08:21:26Z</time></trkpt>
<trkpt lat="53.1697326660" lon="-4.0325438341"><ele>312</ele><time>2012-07-14T08:21:47Z</time></trkpt>
<trkpt lat="53.1696491718" lon="-4.0323483328"><ele>319</ele><time>2012-07-14T08:22:52Z</time></trkpt>
<trkpt lat="53.1696400007" lon="-4.0321076671"><ele>325</ele><time>2012-07-14T08:23:12Z</time></trkpt>
<trkpt lat="53.1696001689" lon="-4.0318833331"><ele>328</ele><time>2012-07-14T08:23:25Z</time></trkpt>
<trkpt lat="53.1695750078" lon="-4.0316488326"><ele>330</ele><time>2012-07-14T08:23:38Z</time></trkpt>
<trkpt lat="53.1695783297" lon="-4.0314213336"><ele>332</ele><time>2012-07-14T08:23:50Z</time></trkpt>
<trkpt lat="53.1694865068" lon="-4.0312328339"><ele>334</ele><time>2012-07-14T08:24:03Z</time></trkpt>
<trkpt lat="53.1693970044" lon="-4.0310426672"><ele>336</ele><time>2012-07-14T08:24:17Z</time></trkpt>
<trkpt lat="53.1693278313" lon="-4.0308440010"><ele>339</ele><time>2012-07-14T08:24:28Z</time></trkpt>
<trkpt lat="53.1692751726" lon="-4.0306273341"><ele>341</ele><time>2012-07-14T08:24:41Z</time></trkpt>
<trkpt lat="53.1692066669" lon="-4.0304143329"><ele>343</ele><time>2012-07-14T08:24:54Z</time></trkpt>
<trkpt lat="53.1691448371" lon="-4.0302091658"><ele>345</ele><time>2012-07-14T08:25:06Z</time></trkpt>
<trkpt lat="53.1691034953" lon="-4.0299933334"><ele>346</ele><time>2012-07-14T08:25:18Z</time></trkpt>
<trkpt lat="53.1690861702" lon="-4.0297561665"><ele>348</ele><time>2012-07-14T08:25:31Z</time></trkpt>
<trkpt lat="53.1690655073" lon="-4.0295189997"><ele>350</ele><time>2012-07-14T08:25:44Z</time></trkpt>
<trkpt lat="53.1690518379" lon="-4.0292801658"><ele>352</ele><time>2012-07-14T08:25:57Z</time></trkpt>
<trkpt lat="53.1690866629" lon="-4.0290534993"><ele>353</ele><time>2012-07-14T08:26:11Z</time></trkpt>
<trkpt lat="53.1690733274" lon="-4.0288181663"><ele>355</ele><time>2012-07-14T08:26:26Z</time></trkpt>
<trkpt lat="53.1690886656" lon="-4.0285918335"><ele>355</ele><time>2012-07-14T08:26:42Z</time></trkpt>
<trkpt lat="53.1690931638" lon="-4.0283556660"><ele>357</ele><time>2012-07-14T08:26:59Z</time></trkpt>
<trkpt lat="53.1690735022" lon="-4.0281243324"><ele>359</ele><time>2012-07-14T08:27:15Z</time></trkpt>
<trkpt lat="53.1690323353" lon="-4.0279033343"><ele>360</ele><time>2012-07-14T08:27:35Z</time></trkpt>
<trkpt lat="53.1690039953" lon="-4.0276786665"><ele>362</ele><time>2012-07-14T08:27:52Z</time></trkpt>
<trkpt lat="53.1689243317" lon="-4.0274918338"><ele>365</ele><time>2012-07-14T08:28:08Z</time></trkpt>
<trkpt lat="53.1688548406" lon="-4.0272909999"><ele>367</ele><time>2012-07-14T08:28:25Z</time></trkpt>
<trkpt lat="53.1687941710" lon="-4.0270826658"><ele>369</ele><time>2012-07-14T08:28:40Z</time></trkpt>
<trkpt lat="53.1687518279" lon="-4.0268549999"><ele>368</ele><time>2012-07-14T08:30:44Z</time></trkpt>
<trkpt lat="53.1687728405" lon="-4.0266208331"><ele>369</ele><time>2012-07-14T08:31:01Z</time></trkpt>
<trkpt lat="53.1687734922" lon="-4.0263881663"><ele>370</ele><time>2012-07-14T08:31:15Z</time></trkpt>
<trkpt lat="53.1687599977" lon="-4.0261599998"><ele>371</ele><time>2012-07-14T08:31:29Z</time></trkpt>
<trkpt lat="53.1686991692" lon="-4.0259395003"><ele>372</ele><time>2012-07-14T08:31:45Z</time></trkpt>
<trkpt lat="53.1687333266" lon="-4.0257134994"><ele>374</ele><time>2012-07-14T08:32:02Z</time></trkpt>
<trkpt lat="53.1687133312" lon="-4.0254839996"><ele>376</ele><time>2012-07-14T08:32:24Z</time></trkpt>
<trkpt lat="53.1686944962" lon="-4.0252605001"><ele>377</ele><time>2012-07-14T08:32:42Z</time></trkpt>
<trkpt lat="53.1686873277" lon="-4.0250353336"><ele>378</ele><time>2012-07-14T08:32:57Z</time></trkpt>
<trkpt lat="53.1686866601" lon="-4.0247966667"><ele>378</ele><time>2012-07-14T08:33:14Z</time></trkpt>
<trkpt lat="53.1686085065" lon="-4.0246014992"><ele>379</ele><time>2012-07-14T08:33:34Z</time></trkpt>
<trkpt lat="53.1685376644" lon="-4.0243996660"><ele>379</ele><time>2012-07-14T08:33:48Z</time></trkpt>
<trkpt lat="53.1684455077" lon="-4.0242351671"><ele>381</ele><time>2012-07-14T08:34:03Z</time></trkpt>
<trkpt lat="53.1684113344" lon="-4.0240125000"><ele>382</ele><time>2012-07-14T08:34:21Z</time></trkpt>
<trkpt lat="53.1684013367" lon="-4.0237783333"><ele>382</ele><time>2012-07-14T08:35:03Z</time></trkpt>
<trkpt lat="53.1683674971" lon="-4.0235595008"><ele>383</ele><time>2012-07-14T08:35:14Z</time></trkpt>
<trkpt lat="53.1683536688" lon="-4.0233244995"><ele>384</ele><time>2012-07-14T08:35:27Z</time></trkpt>
<trkpt lat="53.1683078289" lon="-4.0230991662"><ele>385</ele><time>2012-07-14T08:35:40Z</time></trkpt>
<trkpt lat="53.1682820002" lon="-4.0228668332"><ele>386</ele><time>2012-07-14T08:35:54Z</time></trkpt>
<trkpt lat="53.1682363351" lon="-4.0226495008"><ele>386</ele><time>2012-07-14T08:36:09Z</time></trkpt>
<trkpt lat="53.1681985060" lon="-4.0224273324"><ele>387</ele><time>2012-07-14T08:36:22Z</time></trkpt>
<trkpt lat="53.1681454976" lon="-4.0222076674"><ele>388</ele><time>2012-07-14T08:36:42Z</time></trkpt>
<trkpt lat="53.1680633386" lon="-4.0220296661"><ele>389</ele><time>2012-07-14T08:36:55Z</time></trkpt>
<trkpt lat="53.1679950078" lon="-4.0218283335"><ele>390</ele><time>2012-07-14T08:37:10Z</time></trkpt>
<trkpt lat="53.1679406643" lon="-4.0216139992"><ele>392</ele><time>2012-07-14T08:37:25Z</time></trkpt>
<trkpt lat="53.1679073334" lon="-4.0213963330"><ele>394</ele><time>2012-07-14T08:37:41Z</time></trkpt>
<trkpt lat="53.1678708394" lon="-4.0211761673"><ele>395</ele><time>2012-07-14T08:37:56Z</time></trkpt>
<trkpt lat="53.1678183397" lon="-4.0209626675"><ele>396</ele><time>2012-07-14T08:38:10Z</time></trkpt>
<trkpt lat="53.1677711646" lon="-4.0207448324"><ele>397</ele><time>2012-07-14T08:38:23Z</time></trkpt>
<trkpt lat="53.1677506606" lon="-4.0205084999"><ele>398</ele><time>2012-07-14T08:38:38Z</time></trkpt>
<trkpt lat="53.1676563263" lon="-4.0203423341"><ele>400</ele><time>2012-07-14T08:38:51Z</time></trkpt>
<trkpt lat="53.1676345030" lon="-4.0201099992"><ele>401</ele><time>2012-07-14T08:39:11Z</time></trkpt>
<trkpt lat="53.1675315062" lon="-4.0199466666"><ele>403</ele><time>2012-07-14T08:39:29Z</time></trkpt>
<trkpt lat="53.1674118360" lon="-4.0198388338"><ele>405</ele><time>2012-07-14T08:40:05Z</time></trkpt>
<trkpt lat="53.1673150063" lon="-4.0196660002"><ele>407</ele><time>2012-07-14T08:41:06Z</time></trkpt>
<trkpt lat="53.1671938260" lon="-4.0195233325"><ele>407</ele><time>2012-07-14T08:41:23Z</time></trkpt>
<trkpt lat="53.1670770009" lon="-4.0194101671"><ele>408</ele><time>2012-07-14T08:41:36Z</time></trkpt>
<trkpt lat="53.1669558366" lon="-4.0193005006"><ele>408</ele><time>2012-07-14T08:41:56Z</time></trkpt>
<trkpt lat="53.1668519974" lon="-4.0191519996"><ele>408</ele><time>2012-07-14T08:42:23Z</time></trkpt>
<trkpt lat="53.1667245070" lon="-4.0190588335"><ele>408</ele><time>2012-07-14T08:42:45Z</time></trkpt>
<trkpt lat="53.1666218281" lon="-4.0189010004"><ele>409</ele><time>2012-07-14T08:43:04Z</time></trkpt>
<trkpt lat="53.1665229956" lon="-4.0187383334"><ele>409</ele><time>2012-07-14T08:43:22Z</time></trkpt>
<trkpt lat="53.1664380074" lon="-4.0185376664"><ele>409</ele><time>2012-07-14T08:43:37Z</time></trkpt>
<trkpt lat="53.1663943291" lon="-4.0183178325"><ele>409</ele><time>2012-07-14T08:43:55Z</time></trkpt>
<trkpt lat="53.1663044930" lon="-4.0181321661"><ele>409</ele><time>2012-07-14T08:44:08Z</time></trkpt>
<trkpt lat="53.1662113349" lon="-4.0179676672"><ele>409</ele><time>2012-07-14T08:44:23Z</time></trkpt>
<trkpt lat="53.1661548297" lon="-4.0177553336"><ele>410</ele><time>2012-07-14T08:44:43Z</time></trkpt>
<trkpt lat="53.1660676638" lon="-4.0175629993"><ele>410</ele><time>2012-07-14T08:45:05Z</time></trkpt>
<trkpt lat="53.1660131613" lon="-4.0173458338"><ele>411</ele><time>2012-07-14T08:45:19Z</time></trkpt>
<trkpt lat="53.1659706593" lon="-4.0171259999"><ele>411</ele><time>2012-07-14T08:45:33Z</time></trkpt>
<trkpt lat="53.1659418265" lon="-4.0168878337"><ele>411</ele><time>2012-07-14T08:45:49Z</time></trkpt>
<trkpt lat="53.1659068267" lon="-4.0166588336"><ele>411</ele><time>2012-07-14T08:46:05Z</time></trkpt>
<trkpt lat="53.1658058325" lon="-4.0165045003"><ele>412</ele><time>2012-07-14T08:46:15Z</time></trkpt>
<trkpt lat="53.1657236735" lon="-4.0163221667"><ele>412</ele><time>2012-07-14T08:46:32Z</time></trkpt>
<trkpt lat="53.1656516711" lon="-4.0161153336"><ele>412</ele><time>2012-07-14T08:46:46Z</time></trkpt>
<trkpt lat="53.1655753295" lon="-4.0159265002"><ele>412</ele><time>2012-07-14T08:46:59Z</time></trkpt>
<trkpt lat="53.1655026595" lon="-4.0157181670"><ele>413</ele><time>2012-07-14T08:47:13Z</time></trkpt>
<trkpt lat="53.1654121717" lon="-4.0155365000"><ele>413</ele><time>2012-07-14T08:47:25Z</time></trkpt>
<trkpt lat="53.1653173288" lon="-4.0153571665"><ele>413</ele><time>2012-07-14T08:47:39Z</time></trkpt>
<trkpt lat="53.1652171612" lon="-4.0152013332"><ele>413</ele><time>2012-07-14T08:47:53Z</time></trkpt>
<trkpt lat="53.1651899974" lon="-4.0149813334"><ele>414</ele><time>2012-07-14T08:48:05Z</time></trkpt>
<trkpt lat="53.1651944955" lon="-4.0147543331"><ele>414</ele><time>2012-07-14T08:48:18Z</time></trkpt>
<trkpt lat="53.1651350021" lon="-4.0145354996"><ele>419</ele><time>2012-07-14T08:52:36Z</time></trkpt>
<trkpt lat="53.1650671641" lon="-4.0143378337"><ele>421</ele><time>2012-07-14T08:53:48Z</time></trkpt>
<trkpt lat="53.1649756591" lon="-4.0141668330"><ele>421</ele><time>2012-07-14T08:53:59Z</time></trkpt>
<trkpt lat="53.1648794969" lon="-4.0139949997"><ele>421</ele><time>2012-07-14T08:54:15Z</time></trkpt>
<trkpt lat="53.1647913297" lon="-4.0138220002"><ele>421</ele><time>2012-07-14T08:54:51Z</time></trkpt>
<trkpt lat="53.1647345066" lon="-4.0136135002"><ele>423</ele><time>2012-07-14T08:55:08Z</time></trkpt>
<trkpt lat="53.1646470070" lon="-4.0134410004"><ele>424</ele><time>2012-07-14T08:55:24Z</time></trkpt>
<trkpt lat="53.1645343304" lon="-4.0133063336"><ele>425</ele><time>2012-07-14T08:55:42Z</time></trkpt>
<trkpt lat="53.1644269943" lon="-4.0131415000"><ele>426</ele><time>2012-07-14T08:55:56Z</time></trkpt>
<trkpt lat="53.1643238386" lon="-4.0129786670"><ele>427</ele><time>2012-07-14T08:56:10Z</time></trkpt>
<trkpt lat="53.1642176628" lon="-4.0128250003"><ele>427</ele><time>2012-07-14T08:56:23Z</time></trkpt>
<trkpt lat="53.1641236623" lon="-4.0126560003"><ele>427</ele><time>2012-07-14T08:56:38Z</time></trkpt>
<trkpt lat="53.1640096664" lon="-4.0125143329"><ele>428</ele><time>2012-07-14T08:56:53Z</time></trkpt>
<trkpt lat="53.1638953368" lon="-4.0123653332"><ele>429</ele><time>2012-07-14T08:57:08Z</time></trkpt>
<trkpt lat="53.1637826602" lon="-4.0122360001"><ele>429</ele><time>2012-07-14T08:57:20Z</time></trkpt>
<trkpt lat="53.1636666616" lon="-4.0121130000"><ele>429</ele><time>2012-07-14T08:57:31Z</time></trkpt>
<trkpt lat="53.1635753314" lon="-4.0119448334"><ele>429</ele><time>2012-07-14T08:57:45Z</time></trkpt>
<trkpt lat="53.1634484927" lon="-4.0118471662"><ele>430</ele><time>2012-07-14T08:57:55Z</time></trkpt>
<trkpt lat="53.1633366744" lon="-4.0117113332"><ele>431</ele><time>2012-07-14T08:58:13Z</time></trkpt>
<trkpt lat="53.1632361730" lon="-4.0115589996"><ele>432</ele><time>2012-07-14T08:58:24Z</time></trkpt>
<trkpt lat="53.1631405036" lon="-4.0113858332"><ele>432</ele><time>2012-07-14T08:58:36Z</time></trkpt>
<trkpt lat="53.1630355040" lon="-4.0112325003"><ele>433</ele><time>2012-07-14T08:58:47Z</time></trkpt>
<trkpt lat="53.1629233360" lon="-4.0110941668"><ele>433</ele><time>2012-07-14T08:59:02Z</time></trkpt>
<trkpt lat="53.1628135045" lon="-4.0109398335"><ele>433</ele><time>2012-07-14T08:59:19Z</time></trkpt>
<trkpt lat="53.1627096653" lon="-4.0107864996"><ele>434</ele><time>2012-07-14T08:59:30Z</time></trkpt>
<trkpt lat="53.1626016617" lon="-4.0106501669"><ele>434</ele><time>2012-07-14T08:59:41Z</time></trkpt>
<trkpt lat="53.1624896685" lon="-4.0105131666"><ele>434</ele><time>2012-07-14T08:59:53Z</time></trkpt>
<trkpt lat="53.1623721600" lon="-4.0103806665"><ele>435</ele><time>2012-07-14T09:00:04Z</time></trkpt>
<trkpt lat="53.1622426669" lon="-4.0102648338"><ele>435</ele><time>2012-07-14T09:00:15Z</time></trkpt>
<trkpt lat="53.1621296724" lon="-4.0101339996"><ele>434</ele><time>2012-07-14T09:00:26Z</time></trkpt>
<trkpt lat="53.1620185057" lon="-4.0099766662"><ele>435</ele><time>2012-07-14T09:00:38Z</time></trkpt>
<trkpt lat="53.1618999958" lon="-4.0098356664"><ele>435</ele><time>2012-07-14T09:00:50Z</time></trkpt>
<trkpt lat="53.1617908319" lon="-4.0096735001"><ele>436</ele><time>2012-07-14T09:01:24Z</time></trkpt>
<trkpt lat="53.1616803328" lon="-4.0095209996"><ele>436</ele><time>2012-07-14T09:01:35Z</time></trkpt>
<trkpt lat="53.1615733306" lon="-4.0093843331"><ele>436</ele><time>2012-07-14T09:01:45Z</time></trkpt>
<trkpt lat="53.1614590009" lon="-4.0092513333"><ele>437</ele><time>2012-07-14T09:01:56Z</time></trkpt>
<trkpt lat="53.1613464991" lon="-4.0091030002"><ele>437</ele><time>2012-07-14T09:02:07Z</time></trkpt>
<trkpt lat="53.1612274965" lon="-4.0089781662"><ele>437</ele><time>2012-07-14T09:02:17Z</time></trkpt>
<trkpt lat="53.1611216704" lon="-4.0088168333"><ele>438</ele><time>2012-07-14T09:02:27Z</time></trkpt>
<trkpt lat="53.1610294978" lon="-4.0086461663"><ele>438</ele><time>2012-07-14T09:02:37Z</time></trkpt>
<trkpt lat="53.1609613260" lon="-4.0084341665"><ele>438</ele><time>2012-07-14T09:02:48Z</time></trkpt>
<trkpt lat="53.1609214942" lon="-4.0082168336"><ele>439</ele><time>2012-07-14T09:02:59Z</time></trkpt>
<trkpt lat="53.1608308315" lon="-4.0080229998"><ele>439</ele><time>2012-07-14T09:03:10Z</time></trkpt>
<trkpt lat="53.1607094924" lon="-4.0078788335"><ele>439</ele><time>2012-07-14T09:03:21Z</time></trkpt>
<trkpt lat="53.1606005033" lon="-4.0077075000"><ele>440</ele><time>2012-07-14T09:03:36Z</time></trkpt>
<trkpt lat="53.1605166594" lon="-4.0075306669"><ele>440</ele><time>2012-07-14T09:03:48Z</time></trkpt>
<trkpt lat="53.1604255040" lon="-4.0073546668"><ele>441</ele><time>2012-07-14T09:03:59Z</time></trkpt>
<trkpt lat="53.1603109996" lon="-4.0072050000"><ele>441</ele><time>2012-07-14T09:04:11Z</time></trkpt>
<trkpt lat="53.1602178256" lon="-4.0070164998"><ele>441</ele><time>2012-07-14T09:04:22Z</time></trkpt>
<trkpt lat="53.1601283391" lon="-4.0068276669"><ele>442</ele><time>2012-07-14T09:04:34Z</time></trkpt>
<trkpt lat="53.1600471656" lon="-4.0066446667"><ele>443</ele><time>2012-07-14T09:04:44Z</time></trkpt>
<trkpt lat="53.1599643389" lon="-4.0064588333"><ele>443</ele><time>2012-07-14T09:04:55Z</time></trkpt>
<trkpt lat="53.1598866622" lon="-4.0062546665"><ele>444</ele><time>2012-07-14T09:05:06Z</time></trkpt>
<trkpt lat="53.1598008315" lon="-4.0060766667"><ele>445</ele><time>2012-07-14T09:05:17Z</time></trkpt>
<trkpt lat="53.1597376664" lon="-4.0058764999"><ele>446</ele><time>2012-07-14T09:05:28Z</time></trkpt>
<trkpt lat="53.1596628348" lon="-4.0056863333"><ele>447</ele><time>2012-07-14T09:05:40Z</time></trkpt>
<trkpt lat="53.1595478376" lon="-4.0055526669"><ele>447</ele><time>2012-07-14T09:05:52Z</time></trkpt>
<trkpt lat="53.1594360034" lon="-4.0054088334"><ele>448</ele><time>2012-07-14T09:06:14Z</time></trkpt>
<trkpt lat="53.1593294938" lon="-4.0052598332"><ele>449</ele><time>2012-07-14T09:06:25Z</time></trkpt>
<trkpt lat="53.1592301687" lon="-4.0051064998"><ele>450</ele><time>2012-07-14T09:06:36Z</time></trkpt>
<trkpt lat="53.1591230075" lon="-4.0049613332"><ele>450</ele><time>2012-07-14T09:06:46Z</time></trkpt>
<trkpt lat="53.1590243340" lon="-4.0047970002"><ele>451</ele><time>2012-07-14T09:06:57Z</time></trkpt>
<trkpt lat="53.1589166641" lon="-4.0046456665"><ele>452</ele><time>2012-07-14T09:07:10Z</time></trkpt>
<trkpt lat="53.1588268280" lon="-4.0044529999"><ele>452</ele><time>2012-07-14T09:07:21Z</time></trkpt>
<trkpt lat="53.1587253412" lon="-4.0042919998"><ele>453</ele><time>2012-07-14T09:07:32Z</time></trkpt>
<trkpt lat="53.1586366653" lon="-4.0041128332"><ele>453</ele><time>2012-07-14T09:07:42Z</time></trkpt>
<trkpt lat="53.1586194992" lon="-4.0038866666"><ele>454</ele><time>2012-07-14T09:07:54Z</time></trkpt>
<trkpt lat="53.1585276604" lon="-4.0037161666"><ele>454</ele><time>2012-07-14T09:08:10Z</time></trkpt>
<trkpt lat="53.1584679921" lon="-4.0035131666"><ele>455</ele><time>2012-07-14T09:08:26Z</time></trkpt>
<trkpt lat="53.1584135056" lon="-4.0033046668"><ele>456</ele><time>2012-07-14T09:08:44Z</time></trkpt>
<trkpt lat="53.1583395004" lon="-4.0031069999"><ele>456</ele><time>2012-07-14T09:09:05Z</time></trkpt>
<trkpt lat="53.1582876682" lon="-4.0028849999"><ele>457</ele><time>2012-07-14T09:09:20Z</time></trkpt>
<trkpt lat="53.1582611720" lon="-4.0026601667"><ele>458</ele><time>2012-07-14T09:09:38Z</time></trkpt>
<trkpt lat="53.1581928412" lon="-4.0024651666"><ele>459</ele><time>2012-07-14T09:09:51Z</time></trkpt>
<trkpt lat="53.1580983321" lon="-4.0023003332"><ele>458</ele><time>2012-07-14T09:10:04Z</time></trkpt>
<trkpt lat="53.1580001672" lon="-4.0021455000"><ele>458</ele><time>2012-07-14T09:10:18Z</time></trkpt>
<trkpt lat="53.1578910033" lon="-4.0020071667"><ele>458</ele><time>2012-07-14T09:10:32Z</time></trkpt>
<trkpt lat="53.1577996731" lon="-4.0018289999"><ele>459</ele><time>2012-07-14T09:10:46Z</time></trkpt>
<trkpt lat="53.1577613354" lon="-4.0015976666"><ele>460</ele><time>2012-07-14T09:10:59Z</time></trkpt>
<trkpt lat="53.1577388287" lon="-4.0013668333"><ele>460</ele><time>2012-07-14T09:11:14Z</time></trkpt>
<trkpt lat="53.1577095032" lon="-4.0011388333"><ele>461</ele><time>2012-07-14T09:11:31Z</time></trkpt>
<trkpt lat="53.1576948325" lon="-4.0009043333"><ele>463</ele><time>2012-07-14T09:11:46Z</time></trkpt>
<trkpt lat="53.1576638381" lon="-4.0006850000"><ele>464</ele><time>2012-07-14T09:12:01Z</time></trkpt>
<trkpt lat="53.1575921694" lon="-4.0004860000"><ele>465</ele><time>2012-07-14T09:12:16Z</time></trkpt>
<trkpt lat="53.1574873288" lon="-4.0003201667"><ele>465</ele><time>2012-07-14T09:12:33Z</time></trkpt>
<trkpt lat="53.1573856672" lon="-4.0001721667"><ele>466</ele><time>2012-07-14T09:12:48Z</time></trkpt>
<trkpt lat="53.1572838306" lon="-4.0000146667"><ele>467</ele><time>2012-07-14T09:13:02Z</time></trkpt>
<trkpt lat="53.1571946621" lon="-3.9998431524"><ele>468</ele><time>2012-07-14T09:13:17Z</time></trkpt>
<trkpt lat="53.1571161588" lon="-3.9996550242"><ele>470</ele><time>2012-07-14T09:13:32Z</time></trkpt>
<trkpt lat="53.1570114930" lon="-3.9994966507"><ele>472</ele><time>2012-07-14T09:13:50Z</time></trkpt>
<trkpt lat="53.1569191615" lon="-3.9993151983"><ele>473</ele><time>2012-07-14T09:14:06Z</time></trkpt>
<trkpt lat="53.1568083286" lon="-3.9991774877"><ele>474</ele><time>2012-07-14T09:14:19Z</time></trkpt>
<trkpt lat="53.1566760063" lon="-3.9990941366"><ele>476</ele><time>2012-07-14T09:14:33Z</time></trkpt>
<trkpt lat="53.1565513293" lon="-3.9989871979"><ele>477</ele><time>2012-07-14T09:14:50Z</time></trkpt>
<trkpt lat="53.1564428329" lon="-3.9988411585"><ele>478</ele><time>2012-07-14T09:15:07Z</time></trkpt>
<trkpt lat="53.1563358307" lon="-3.9987014771"><ele>479</ele><time>2012-07-14T09:15:30Z</time></trkpt>
<trkpt lat="53.1562106609" lon="-3.9985981623"><ele>481</ele><time>2012-07-14T09:15:51Z</time></trkpt>
<trkpt lat="53.1560736656" lon="-3.9985895157"><ele>482</ele><time>2012-07-14T09:16:09Z</time></trkpt>
<trkpt lat="53.1559474945" lon="-3.9984860102"><ele>484</ele><time>2012-07-14T09:16:31Z</time></trkpt>
<trkpt lat="53.1558463256" lon="-3.9983373642"><ele>487</ele><time>2012-07-14T09:16:52Z</time></trkpt>
<trkpt lat="53.1557513396" lon="-3.9981771469"><ele>490</ele><time>2012-07-14T09:17:14Z</time></trkpt>
<trkpt lat="53.1556139946" lon="-3.9981476466"><ele>492</ele><time>2012-07-14T09:17:35Z</time></trkpt>
<trkpt lat="53.1554823399" lon="-3.9980621974"><ele>497</ele><time>2012-07-14T09:18:16Z</time></trkpt>
<trkpt lat="53.1553793271" lon="-3.9979049683"><ele>500</ele><time>2012-07-14T09:18:35Z</time></trkpt>
<trkpt lat="53.1552421729" lon="-3.9978533427"><ele>502</ele><time>2012-07-14T09:18:57Z</time></trkpt>
<trkpt lat="53.1551150004" lon="-3.9979478200"><ele>503</ele><time>2012-07-14T09:19:13Z</time></trkpt>
<trkpt lat="53.1549751600" lon="-3.9979578018"><ele>505</ele><time>2012-07-14T09:19:31Z</time></trkpt>
<trkpt lat="53.1548380057" lon="-3.9979529699"><ele>507</ele><time>2012-07-14T09:19:50Z</time></trkpt>
<trkpt lat="53.1547039986" lon="-3.9979861577"><ele>507</ele><time>2012-07-14T09:20:05Z</time></trkpt>
<trkpt lat="53.1545878410" lon="-3.9978713353"><ele>509</ele><time>2012-07-14T09:20:27Z</time></trkpt>
<trkpt lat="53.1545393308" lon="-3.9976611455"><ele>512</ele><time>2012-07-14T09:20:55Z</time></trkpt>
<trkpt lat="53.1544623375" lon="-3.9974746704"><ele>515</ele><time>2012-07-14T09:21:20Z</time></trkpt>
<trkpt lat="53.1543244998" lon="-3.9975095113"><ele>520</ele><time>2012-07-14T09:36:22Z</time></trkpt>
<trkpt lat="53.1542356650" lon="-3.9976873398"><ele>524</ele><time>2012-07-14T09:37:10Z</time></trkpt>
<trkpt lat="53.1541616599" lon="-3.9978841782"><ele>527</ele><time>2012-07-14T09:37:38Z</time></trkpt>
<trkpt lat="53.1540563265" lon="-3.9980381648"><ele>527</ele><time>2012-07-14T09:37:57Z</time></trkpt>
<trkpt lat="53.1539451599" lon="-3.9981743495"><ele>528</ele><time>2012-07-14T09:38:20Z</time></trkpt>
<trkpt lat="53.1538180033" lon="-3.9982655207"><ele>528</ele><time>2012-07-14T09:38:39Z</time></trkpt>
<trkpt lat="53.1537034988" lon="-3.9983843486"><ele>529</ele><time>2012-07-14T09:39:00Z</time></trkpt>
<trkpt lat="53.1535645008" lon="-3.9983558019"><ele>531</ele><time>2012-07-14T09:39:25Z</time></trkpt>
<trkpt lat="53.1534261703" lon="-3.9983455022"><ele>532</ele><time>2012-07-14T09:39:55Z</time></trkpt>
<trkpt lat="53.1533118407" lon="-3.9984734853"><ele>539</ele><time>2012-07-14T09:40:50Z</time></trkpt>
<trkpt lat="53.1531890074" lon="-3.9985750198"><ele>545</ele><time>2012-07-14T09:41:51Z</time></trkpt>
<trkpt lat="53.1530638377" lon="-3.9986705144"><ele>558</ele><time>2012-07-14T09:43:11Z</time></trkpt>
<trkpt lat="53.1529734929" lon="-3.9988373439"><ele>570</ele><time>2012-07-14T09:44:11Z</time></trkpt>
<trkpt lat="53.1529449940" lon="-3.9990633647"><ele>583</ele><time>2012-07-14T09:45:09Z</time></trkpt>
<trkpt lat="53.1528488318" lon="-3.9992205302"><ele>599</ele><time>2012-07-14T09:46:42Z</time></trkpt>
<trkpt lat="53.1527053356" lon="-3.9991970062"><ele>605</ele><time>2012-07-14T09:47:47Z</time></trkpt>
<trkpt lat="53.1525629997" lon="-3.9992069880"><ele>610</ele><time>2012-07-14T09:49:08Z</time></trkpt>
<trkpt lat="53.1524270058" lon="-3.9992913564"><ele>621</ele><time>2012-07-14T09:50:28Z</time></trkpt>
<trkpt lat="53.1522964954" lon="-3.9993881861"><ele>627</ele><time>2012-07-14T09:51:24Z</time></trkpt>
<trkpt lat="53.1521694978" lon="-3.9994776408"><ele>633</ele><time>2012-07-14T09:52:09Z</time></trkpt>
<trkpt lat="53.1520291646" lon="-3.9995191574"><ele>639</ele><time>2012-07-14T09:53:02Z</time></trkpt>
<trkpt lat="53.1518994967" lon="-3.9996136983"><ele>649</ele><time>2012-07-14T09:54:17Z</time></trkpt>
<trkpt lat="53.1517659982" lon="-3.9996515274"><ele>654</ele><time>2012-07-14T09:55:17Z</time></trkpt>
<trkpt lat="53.1516274929" lon="-3.9996916453"><ele>665</ele><time>2012-07-14T09:56:49Z</time></trkpt>
<trkpt lat="53.1515373389" lon="-3.9995246887"><ele>670</ele><time>2012-07-14T09:57:52Z</time></trkpt>
<trkpt lat="53.1515344938" lon="-3.9992984772"><ele>679</ele><time>2012-07-14T09:59:28Z</time></trkpt>
<trkpt lat="53.1515886625" lon="-3.9990905126"><ele>684</ele><time>2012-07-14T10:00:04Z</time></trkpt>
<trkpt lat="53.1517013391" lon="-3.9989454905"><ele>689</ele><time>2012-07-14T10:00:40Z</time></trkpt>
<trkpt lat="53.1517133395" lon="-3.9987191518"><ele>695</ele><time>2012-07-14T10:01:26Z</time></trkpt>
<trkpt lat="53.1518050035" lon="-3.9985450109"><ele>701</ele><time>2012-07-14T10:02:11Z</time></trkpt>
<trkpt lat="53.1518955072" lon="-3.9983701706"><ele>705</ele><time>2012-07-14T10:02:41Z</time></trkpt>
<trkpt lat="53.1519288381" lon="-3.9981419881"><ele>707</ele><time>2012-07-14T10:02:59Z</time></trkpt>
<trkpt lat="53.1520108382" lon="-3.9979603450"><ele>708</ele><time>2012-07-14T10:03:19Z</time></trkpt>
<trkpt lat="53.1521179994" lon="-3.9978085200"><ele>710</ele><time>2012-07-14T10:03:49Z</time></trkpt>
<trkpt lat="53.1522075017" lon="-3.9976061503"><ele>712</ele><time>2012-07-14T10:04:41Z</time></trkpt>
<trkpt lat="53.1521540006" lon="-3.9978153229"><ele>715</ele><time>2012-07-14T10:05:05Z</time></trkpt>
<trkpt lat="53.1522891680" lon="-3.9978026708"><ele>745</ele><time>2012-07-14T10:07:16Z</time></trkpt>
<trkpt lat="53.1522358259" lon="-3.9975964864"><ele>753</ele><time>2012-07-14T10:11:30Z</time></trkpt>
<trkpt lat="53.1521503290" lon="-3.9974123637"><ele>756</ele><time>2012-07-14T10:12:57Z</time></trkpt>
<trkpt lat="53.1520154953" lon="-3.9974285126"><ele>767</ele><time>2012-07-14T10:15:31Z</time></trkpt>
<trkpt lat="53.1518898328" lon="-3.9975156784"><ele>773</ele><time>2012-07-14T10:16:51Z</time></trkpt>
<trkpt lat="53.1517646631" lon="-3.9974261602"><ele>784</ele><time>2012-07-14T10:18:12Z</time></trkpt>
<trkpt lat="53.1516286691" lon="-3.9974301656"><ele>792</ele><time>2012-07-14T10:18:52Z</time></trkpt>
<trkpt lat="53.1514928341" lon="-3.9974943161"><ele>795</ele><time>2012-07-14T10:19:18Z</time></trkpt>
<trkpt lat="53.1513526599" lon="-3.9975093206"><ele>808</ele><time>2012-07-14T10:21:10Z</time></trkpt>
<trkpt lat="53.1512214979" lon="-3.9975835164"><ele>816</ele><time>2012-07-14T10:22:20Z</time></trkpt>
<trkpt lat="53.1510903358" lon="-3.9976358414"><ele>823</ele><time>2012-07-14T10:24:55Z</time></trkpt>
<trkpt lat="53.1509669940" lon="-3.9977560043"><ele>829</ele><time>2012-07-14T10:26:07Z</time></trkpt>
<trkpt lat="53.1508298397" lon="-3.9977404912"><ele>836</ele><time>2012-07-14T10:27:49Z</time></trkpt>
<trkpt lat="53.1506969929" lon="-3.9976798375"><ele>839</ele><time>2012-07-14T10:28:24Z</time></trkpt>
<trkpt lat="53.1507198334" lon="-3.9974444707"><ele>845</ele><time>2012-07-14T10:29:15Z</time></trkpt>
<trkpt lat="53.1506543318" lon="-3.9976505280"><ele>845</ele><time>2012-07-14T10:29:28Z</time></trkpt>
<trkpt lat="53.1505129973" lon="-3.9976339976"><ele>851</ele><time>2012-07-14T10:30:31Z</time></trkpt>
<trkpt lat="53.1503823280" lon="-3.9977026622"><ele>876</ele><time>2012-07-14T10:35:31Z</time></trkpt>
<trkpt lat="53.1502445062" lon="-3.9976708094"><ele>879</ele><time>2012-07-14T10:36:35Z</time></trkpt>
<trkpt lat="53.1501074950" lon="-3.9976913452"><ele>890</ele><time>2012-07-14T10:43:18Z</time></trkpt>
<trkpt lat="53.1499771595" lon="-3.9976286570"><ele>898</ele><time>2012-07-14T10:45:02Z</time></trkpt>
<trkpt lat="53.1498361588" lon="-3.9975921631"><ele>900</ele><time>2012-07-14T10:46:04Z</time></trkpt>
<trkpt lat="53.1497066657" lon="-3.9975298564"><ele>925</ele><time>2012-07-14T10:57:34Z</time></trkpt>
<trkpt lat="53.1495748361" lon="-3.9975861867"><ele>929</ele><time>2012-07-14T10:58:37Z</time></trkpt>
<trkpt lat="53.1494771640" lon="-3.9977426529"><ele>937</ele><time>2012-07-14T10:59:31Z</time></trkpt>
<trkpt lat="53.1493523280" lon="-3.9978323619"><ele>943</ele><time>2012-07-14T11:00:15Z</time></trkpt>
<trkpt lat="53.1492268403" lon="-3.9979169846"><ele>948</ele><time>2012-07-14T11:00:58Z</time></trkpt>
<trkpt lat="53.1490931670" lon="-3.9979724884"><ele>954</ele><time>2012-07-14T11:02:05Z</time></trkpt>
<trkpt lat="53.1489669959" lon="-3.9980788549"><ele>960</ele><time>2012-07-14T11:02:55Z</time></trkpt>
<trkpt lat="53.1488348325" lon="-3.9981309891"><ele>966</ele><time>2012-07-14T11:03:50Z</time></trkpt>
<trkpt lat="53.1486988386" lon="-3.9980666478"><ele>967</ele><time>2012-07-14T11:04:22Z</time></trkpt>
<trkpt lat="53.1485908349" lon="-3.9982026418"><ele>970</ele><time>2012-07-14T11:05:31Z</time></trkpt>
<trkpt lat="53.1484914939" lon="-3.9983666738"><ele>975</ele><time>2012-07-14T11:06:41Z</time></trkpt>
<trkpt lat="53.1483676593" lon="-3.9984760284"><ele>1002</ele><time>2012-07-14T11:08:44Z</time></trkpt>
<trkpt lat="53.1483128389" lon="-3.9986873627"><ele>1011</ele><time>2012-07-14T11:09:20Z</time></trkpt>
<trkpt lat="53.1482340018" lon="-3.9988718033"><ele>1018</ele><time>2012-07-14T11:09:52Z</time></trkpt>
<trkpt lat="53.1481410027" lon="-3.9990439733"><ele>1023</ele><time>2012-07-14T11:10:19Z</time></trkpt>
<trkpt lat="53.1480453332" lon="-3.9992139816"><ele>1025</ele><time>2012-07-14T11:10:45Z</time></trkpt>
<trkpt lat="53.1479090055" lon="-3.9992013295"><ele>1032</ele><time>2012-07-14T11:11:15Z</time></trkpt>
<trkpt lat="53.1479081631" lon="-3.9989768346"><ele>1041</ele><time>2012-07-14T11:19:25Z</time></trkpt>
<trkpt lat="53.1479623318" lon="-3.9987621943"><ele>1041</ele><time>2012-07-14T11:19:41Z</time></trkpt>
<trkpt lat="53.1479969978" lon="-3.9985303243"><ele>1041</ele><time>2012-07-14T11:19:56Z</time></trkpt>
<trkpt lat="53.1479839961" lon="-3.9983008067"><ele>1040</ele><time>2012-07-14T11:20:13Z</time></trkpt>
<trkpt lat="53.1479873339" lon="-3.9980765025"><ele>1038</ele><time>2012-07-14T11:20:29Z</time></trkpt>
<trkpt lat="53.1479933262" lon="-3.9978493373"><ele>1036</ele><time>2012-07-14T11:20:51Z</time></trkpt>
<trkpt lat="53.1479816596" lon="-3.9976201375"><ele>1034</ele><time>2012-07-14T11:21:09Z</time></trkpt>
<trkpt lat="53.1479540030" lon="-3.9974006653"><ele>1032</ele><time>2012-07-14T11:21:24Z</time></trkpt>
<trkpt lat="53.1479595025" lon="-3.9971706390"><ele>1031</ele><time>2012-07-14T11:21:42Z</time></trkpt>
<trkpt lat="53.1479956627" lon="-3.9969521840"><ele>1029</ele><time>2012-07-14T11:22:00Z</time></trkpt>
<trkpt lat="53.1480068366" lon="-3.9967211405"><ele>1028</ele><time>2012-07-14T11:22:14Z</time></trkpt>
<trkpt lat="53.1480383396" lon="-3.9964928309"><ele>1027</ele><time>2012-07-14T11:22:31Z</time></trkpt>
<trkpt lat="53.1480221589" lon="-3.9962554932"><ele>1024</ele><time>2012-07-14T11:22:46Z</time></trkpt>
<trkpt lat="53.1480704943" lon="-3.9960425059"><ele>1023</ele><time>2012-07-14T11:22:59Z</time></trkpt>
<trkpt lat="53.1480885029" lon="-3.9958141963"><ele>1022</ele><time>2012-07-14T11:23:10Z</time></trkpt>
<trkpt lat="53.1480665048" lon="-3.9955798467"><ele>1021</ele><time>2012-07-14T11:23:23Z</time></trkpt>
<trkpt lat="53.1480176608" lon="-3.9953693390"><ele>1020</ele><time>2012-07-14T11:23:35Z</time></trkpt>
<trkpt lat="53.1479878267" lon="-3.9951373418"><ele>1018</ele><time>2012-07-14T11:23:46Z</time></trkpt>
<trkpt lat="53.1479644934" lon="-3.9949069977"><ele>1016</ele><time>2012-07-14T11:24:01Z</time></trkpt>
<trkpt lat="53.1479528268" lon="-3.9946798325"><ele>1014</ele><time>2012-07-14T11:24:23Z</time></trkpt>
<trkpt lat="53.1479386648" lon="-3.9944488525"><ele>1012</ele><time>2012-07-14T11:24:41Z</time></trkpt>
<trkpt lat="53.1478638331" lon="-3.9942523321"><ele>1009</ele><time>2012-07-14T11:24:56Z</time></trkpt>
<trkpt lat="53.1478843371" lon="-3.9940294902"><ele>1007</ele><time>2012-07-14T11:25:10Z</time></trkpt>
<trkpt lat="53.1478529930" lon="-3.9938021978"><ele>1005</ele><time>2012-07-14T11:25:22Z</time></trkpt>
<trkpt lat="53.1478124936" lon="-3.9935876846"><ele>1003</ele><time>2012-07-14T11:25:32Z</time></trkpt>
<trkpt lat="53.1477841695" lon="-3.9933530172"><ele>1001</ele><time>2012-07-14T11:25:44Z</time></trkpt>
<trkpt lat="53.1477131685" lon="-3.9931571960"><ele>999</ele><time>2012-07-14T11:25:55Z</time></trkpt>
<trkpt lat="53.1476374944" lon="-3.9929445267"><ele>998</ele><time>2012-07-14T11:26:06Z</time></trkpt>
<trkpt lat="53.1476361593" lon="-3.9927086512"><ele>995</ele><time>2012-07-14T11:26:17Z</time></trkpt>
<trkpt lat="53.1476290067" lon="-3.9924800237"><ele>994</ele><time>2012-07-14T11:26:30Z</time></trkpt>
<trkpt lat="53.1476113319" lon="-3.9922438304"><ele>992</ele><time>2012-07-14T11:26:44Z</time></trkpt>
<trkpt lat="53.1476044973" lon="-3.9920026779"><ele>991</ele><time>2012-07-14T11:26:56Z</time></trkpt>
<trkpt lat="53.1475813389" lon="-3.9917593638"><ele>989</ele><time>2012-07-14T11:27:09Z</time></trkpt>
<trkpt lat="53.1476021608" lon="-3.9915306727"><ele>988</ele><time>2012-07-14T11:27:20Z</time></trkpt>
<trkpt lat="53.1475949923" lon="-3.9913006465"><ele>987</ele><time>2012-07-14T11:27:30Z</time></trkpt>
<trkpt lat="53.1476078351" lon="-3.9910601934"><ele>986</ele><time>2012-07-14T11:27:42Z</time></trkpt>
<trkpt lat="53.1476088365" lon="-3.9908349991"><ele>985</ele><time>2012-07-14T11:27:54Z</time></trkpt>
<trkpt lat="53.1475971699" lon="-3.9906013489"><ele>984</ele><time>2012-07-14T11:28:06Z</time></trkpt>
<trkpt lat="53.1475910028" lon="-3.9903763453"><ele>983</ele><time>2012-07-14T11:28:16Z</time></trkpt>
<trkpt lat="53.1475690047" lon="-3.9901481628"><ele>981</ele><time>2012-07-14T11:28:27Z</time></trkpt>
<trkpt lat="53.1475431601" lon="-3.9899105072"><ele>981</ele><time>2012-07-14T11:28:39Z</time></trkpt>
<trkpt lat="53.1475553354" lon="-3.9896858215"><ele>980</ele><time>2012-07-14T11:28:50Z</time></trkpt>
<trkpt lat="53.1475756645" lon="-3.9894383113"><ele>980</ele><time>2012-07-14T11:29:02Z</time></trkpt>
<trkpt lat="53.1475886663" lon="-3.9891976674"><ele>979</ele><time>2012-07-14T11:29:14Z</time></trkpt>
<trkpt lat="53.1475978374" lon="-3.9889715195"><ele>979</ele><time>2012-07-14T11:29:26Z</time></trkpt>
<trkpt lat="53.1476014932" lon="-3.9887333552"><ele>978</ele><time>2012-07-14T11:29:39Z</time></trkpt>
<trkpt lat="53.1475958347" lon="-3.9884963353"><ele>977</ele><time>2012-07-14T11:29:56Z</time></trkpt>
<trkpt lat="53.1476946672" lon="-3.9883279800"><ele>976</ele><time>2012-07-14T11:30:12Z</time></trkpt>
<trkpt lat="53.1477214972" lon="-3.9880938212"><ele>976</ele><time>2012-07-14T11:30:25Z</time></trkpt>
<trkpt lat="53.1477571646" lon="-3.9878683090"><ele>977</ele><time>2012-07-14T11:30:36Z</time></trkpt>
<trkpt lat="53.1477916718" lon="-3.9876323064"><ele>977</ele><time>2012-07-14T11:30:48Z</time></trkpt>
<trkpt lat="53.1478038311" lon="-3.9873929977"><ele>977</ele><time>2012-07-14T11:31:01Z</time></trkpt>
<trkpt lat="53.1477904956" lon="-3.9871563594"><ele>976</ele><time>2012-07-14T11:31:14Z</time></trkpt>
<trkpt lat="53.1478160063" lon="-3.9869173050"><ele>976</ele><time>2012-07-14T11:31:26Z</time></trkpt>
<trkpt lat="53.1478490035" lon="-3.9866986593"><ele>975</ele><time>2012-07-14T11:31:41Z</time></trkpt>
<trkpt lat="53.1478759925" lon="-3.9864736557"><ele>974</ele><time>2012-07-14T11:31:58Z</time></trkpt>
<trkpt lat="53.1478854974" lon="-3.9862496694"><ele>973</ele><time>2012-07-14T11:32:52Z</time></trkpt>
<trkpt lat="53.1479265054" lon="-3.9860318502"><ele>971</ele><time>2012-07-14T11:33:19Z</time></trkpt>
<trkpt lat="53.1479145050" lon="-3.9857978185"><ele>963</ele><time>2012-07-14T11:49:09Z</time></trkpt>
<trkpt lat="53.1479556719" lon="-3.9855828603"><ele>962</ele><time>2012-07-14T11:49:23Z</time></trkpt>
<trkpt lat="53.1480370045" lon="-3.9853908539"><ele>962</ele><time>2012-07-14T11:49:38Z</time></trkpt>
<trkpt lat="53.1481300036" lon="-3.9852276484"><ele>963</ele><time>2012-07-14T11:49:51Z</time></trkpt>
<trkpt lat="53.1482238293" lon="-3.9850449880"><ele>963</ele><time>2012-07-14T11:50:06Z</time></trkpt>
<trkpt lat="53.1483406703" lon="-3.9849075317"><ele>963</ele><time>2012-07-14T11:50:21Z</time></trkpt>
<trkpt lat="53.1484461625" lon="-3.9847560247"><ele>962</ele><time>2012-07-14T11:50:36Z</time></trkpt>
<trkpt lat="53.1485475063" lon="-3.9845896403"><ele>962</ele><time>2012-07-14T11:50:50Z</time></trkpt>
<trkpt lat="53.1486426671" lon="-3.9844299952"><ele>962</ele><time>2012-07-14T11:51:04Z</time></trkpt>
<trkpt lat="53.1487410069" lon="-3.9842606862"><ele>962</ele><time>2012-07-14T11:51:19Z</time></trkpt>
<trkpt lat="53.1488103390" lon="-3.9840620041"><ele>962</ele><time>2012-07-14T11:51:32Z</time></trkpt>
<trkpt lat="53.1488313357" lon="-3.9838331858"><ele>962</ele><time>2012-07-14T11:51:55Z</time></trkpt>
<trkpt lat="53.1488356590" lon="-3.9836088181"><ele>963</ele><time>2012-07-14T11:52:23Z</time></trkpt>
<trkpt lat="53.1488794963" lon="-3.9833943049"><ele>963</ele><time>2012-07-14T11:52:42Z</time></trkpt>
<trkpt lat="53.1488933404" lon="-3.9831673304"><ele>963</ele><time>2012-07-14T11:53:02Z</time></trkpt>
<trkpt lat="53.1488771598" lon="-3.9829431534"><ele>964</ele><time>2012-07-14T11:53:35Z</time></trkpt>
<trkpt lat="53.1489079952" lon="-3.9827186584"><ele>961</ele><time>2012-07-14T11:54:38Z</time></trkpt>
<trkpt lat="53.1489508311" lon="-3.9825045268"><ele>961</ele><time>2012-07-14T11:54:54Z</time></trkpt>
<trkpt lat="53.1490609964" lon="-3.9823601405"><ele>961</ele><time>2012-07-14T11:55:50Z</time></trkpt>
<trkpt lat="53.1491636594" lon="-3.9821994781"><ele>961</ele><time>2012-07-14T11:56:28Z</time></trkpt>
<trkpt lat="53.1492446740" lon="-3.9820141474"><ele>961</ele><time>2012-07-14T11:56:50Z</time></trkpt>
<trkpt lat="53.1493354956" lon="-3.9818429947"><ele>961</ele><time>2012-07-14T11:57:07Z</time></trkpt>
<trkpt lat="53.1493979931" lon="-3.9816413244"><ele>961</ele><time>2012-07-14T11:57:35Z</time></trkpt>
<trkpt lat="53.1494541645" lon="-3.9814361572"><ele>961</ele><time>2012-07-14T11:58:19Z</time></trkpt>
<trkpt lat="53.1493594964" lon="-3.9812716802"><ele>959</ele><time>2012-07-14T11:58:48Z</time></trkpt>
<trkpt lat="53.1493518353" lon="-3.9810471853"><ele>960</ele><time>2012-07-14T12:01:50Z</time></trkpt>
<trkpt lat="53.1494121710" lon="-3.9808406830"><ele>960</ele><time>2012-07-14T12:02:01Z</time></trkpt>
<trkpt lat="53.1494420052" lon="-3.9806118647"><ele>959</ele><time>2012-07-14T12:02:12Z</time></trkpt>
<trkpt lat="53.1494473298" lon="-3.9803743362"><ele>959</ele><time>2012-07-14T12:02:26Z</time></trkpt>
<trkpt lat="53.1494471709" lon="-3.9801450094"><ele>959</ele><time>2012-07-14T12:02:41Z</time></trkpt>
<trkpt lat="53.1494414965" lon="-3.9799194972"><ele>966</ele><time>2012-07-14T12:02:52Z</time></trkpt>
<trkpt lat="53.1494488398" lon="-3.9796898524"><ele>970</ele><time>2012-07-14T12:03:04Z</time></trkpt>
<trkpt lat="53.1494751612" lon="-3.9794693629"><ele>963</ele><time>2012-07-14T12:03:19Z</time></trkpt>
<trkpt lat="53.1494884968" lon="-3.9792343140"><ele>961</ele><time>2012-07-14T12:03:34Z</time></trkpt>
<trkpt lat="53.1494913260" lon="-3.9789941788"><ele>959</ele><time>2012-07-14T12:03:48Z</time></trkpt>
<trkpt lat="53.1495501677" lon="-3.9787900289"><ele>958</ele><time>2012-07-14T12:04:00Z</time></trkpt>
<trkpt lat="53.1495898406" lon="-3.9785694758"><ele>958</ele><time>2012-07-14T12:04:15Z</time></trkpt>
<trkpt lat="53.1495910009" lon="-3.9783366521"><ele>957</ele><time>2012-07-14T12:04:30Z</time></trkpt>
<trkpt lat="53.1496510029" lon="-3.9781346639"><ele>955</ele><time>2012-07-14T12:04:52Z</time></trkpt>
<trkpt lat="53.1497509956" lon="-3.9779731750"><ele>954</ele><time>2012-07-14T12:05:13Z</time></trkpt>
<trkpt lat="53.1498264949" lon="-3.9777706782"><ele>950</ele><time>2012-07-14T12:05:34Z</time></trkpt>
<trkpt lat="53.1499580065" lon="-3.9776666641"><ele>949</ele><time>2012-07-14T12:05:49Z</time></trkpt>
<trkpt lat="53.1500768344" lon="-3.9775484721"><ele>948</ele><time>2012-07-14T12:06:01Z</time></trkpt>
<trkpt lat="53.1502000014" lon="-3.9774336497"><ele>947</ele><time>2012-07-14T12:06:19Z</time></trkpt>
<trkpt lat="53.1503126621" lon="-3.9773016612"><ele>943</ele><time>2012-07-14T12:06:36Z</time></trkpt>
<trkpt lat="53.1504353364" lon="-3.9771958033"><ele>938</ele><time>2012-07-14T12:06:58Z</time></trkpt>
<trkpt lat="53.1505446593" lon="-3.9770570119"><ele>936</ele><time>2012-07-14T12:07:20Z</time></trkpt>
<trkpt lat="53.1506601652" lon="-3.9769299825"><ele>937</ele><time>2012-07-14T12:07:38Z</time></trkpt>
<trkpt lat="53.1507798354" lon="-3.9768233617"><ele>937</ele><time>2012-07-14T12:08:02Z</time></trkpt>
<trkpt lat="53.1509168307" lon="-3.9768285116"><ele>937</ele><time>2012-07-14T12:08:21Z</time></trkpt>
<trkpt lat="53.1510491689" lon="-3.9767646790"><ele>937</ele><time>2012-07-14T12:08:46Z</time></trkpt>
<trkpt lat="53.1511556625" lon="-3.9766111374"><ele>939</ele><time>2012-07-14T12:09:07Z</time></trkpt>
<trkpt lat="53.1512918313" lon="-3.9765569687"><ele>941</ele><time>2012-07-14T12:09:26Z</time></trkpt>
<trkpt lat="53.1514283339" lon="-3.9765209834"><ele>941</ele><time>2012-07-14T12:09:41Z</time></trkpt>
<trkpt lat="53.1515701612" lon="-3.9764813105"><ele>941</ele><time>2012-07-14T12:09:54Z</time></trkpt>
<trkpt lat="53.1516968409" lon="-3.9763986588"><ele>941</ele><time>2012-07-14T12:10:07Z</time></trkpt>
<trkpt lat="53.1518236637" lon="-3.9763016383"><ele>940</ele><time>2012-07-14T12:10:18Z</time></trkpt>
<trkpt lat="53.1519470056" lon="-3.9761828105"><ele>940</ele><time>2012-07-14T12:10:32Z</time></trkpt>
<trkpt lat="53.1520475070" lon="-3.9760081609"><ele>938</ele><time>2012-07-14T12:10:49Z</time></trkpt>
<trkpt lat="53.1521633307" lon="-3.9758899689"><ele>936</ele><time>2012-07-14T12:11:08Z</time></trkpt>
<trkpt lat="53.1523005009" lon="-3.9758623123"><ele>935</ele><time>2012-07-14T12:11:59Z</time></trkpt>
<trkpt lat="53.1524213314" lon="-3.9757535299"><ele>935</ele><time>2012-07-14T12:12:12Z</time></trkpt>
<trkpt lat="53.1525259972" lon="-3.9755860011"><ele>935</ele><time>2012-07-14T12:12:26Z</time></trkpt>
<trkpt lat="53.1526358287" lon="-3.9754438400"><ele>935</ele><time>2012-07-14T12:12:37Z</time></trkpt>
<trkpt lat="53.1527406693" lon="-3.9752953211"><ele>935</ele><time>2012-07-14T12:12:48Z</time></trkpt>
<trkpt lat="53.1528305054" lon="-3.9751071930"><ele>935</ele><time>2012-07-14T12:13:00Z</time></trkpt>
<trkpt lat="53.1529198329" lon="-3.9749256770"><ele>934</ele><time>2012-07-14T12:13:12Z</time></trkpt>
<trkpt lat="53.1530276616" lon="-3.9747703552"><ele>934</ele><time>2012-07-14T12:13:25Z</time></trkpt>
<trkpt lat="53.1531424999" lon="-3.9746358236"><ele>933</ele><time>2012-07-14T12:13:36Z</time></trkpt>
<trkpt lat="53.1532395045" lon="-3.9744691849"><ele>933</ele><time>2012-07-14T12:13:47Z</time></trkpt>
<trkpt lat="53.1533353329" lon="-3.9742831548"><ele>932</ele><time>2012-07-14T12:13:59Z</time></trkpt>
<trkpt lat="53.1534074942" lon="-3.9740769704"><ele>932</ele><time>2012-07-14T12:14:12Z</time></trkpt>
<trkpt lat="53.1534861724" lon="-3.9738908132"><ele>932</ele><time>2012-07-14T12:14:26Z</time></trkpt>
<trkpt lat="53.1535933336" lon="-3.9737211863"><ele>933</ele><time>2012-07-14T12:14:40Z</time></trkpt>
<trkpt lat="53.1536920071" lon="-3.9735521952"><ele>933</ele><time>2012-07-14T12:14:52Z</time></trkpt>
<trkpt lat="53.1537893295" lon="-3.9733941396"><ele>933</ele><time>2012-07-14T12:15:05Z</time></trkpt>
<trkpt lat="53.1538731734" lon="-3.9732158025"><ele>934</ele><time>2012-07-14T12:15:20Z</time></trkpt>
<trkpt lat="53.1539751689" lon="-3.9730478287"><ele>935</ele><time>2012-07-14T12:15:34Z</time></trkpt>
<trkpt lat="53.1540693283" lon="-3.9728836695"><ele>936</ele><time>2012-07-14T12:15:46Z</time></trkpt>
<trkpt lat="53.1541351636" lon="-3.9726683299"><ele>936</ele><time>2012-07-14T12:16:03Z</time></trkpt>
<trkpt lat="53.1542266687" lon="-3.9724911372"><ele>936</ele><time>2012-07-14T12:16:20Z</time></trkpt>
<trkpt lat="53.1542746703" lon="-3.9722670237"><ele>935</ele><time>2012-07-14T12:16:58Z</time></trkpt>
<trkpt lat="53.1544085026" lon="-3.9722018560"><ele>933</ele><time>2012-07-14T12:17:27Z</time></trkpt>
<trkpt lat="53.1545434952" lon="-3.9721946716"><ele>932</ele><time>2012-07-14T12:17:41Z</time></trkpt>
<trkpt lat="53.1546673298" lon="-3.9721045176"><ele>932</ele><time>2012-07-14T12:17:56Z</time></trkpt>
<trkpt lat="53.1548075040" lon="-3.9720641454"><ele>932</ele><time>2012-07-14T12:18:12Z</time></trkpt>
<trkpt lat="53.1549101671" lon="-3.9719090144"><ele>932</ele><time>2012-07-14T12:18:26Z</time></trkpt>
<trkpt lat="53.1550264994" lon="-3.9717626572"><ele>931</ele><time>2012-07-14T12:18:40Z</time></trkpt>
<trkpt lat="53.1551320076" lon="-3.9716133118"><ele>931</ele><time>2012-07-14T12:18:51Z</time></trkpt>
<trkpt lat="53.1552623272" lon="-3.9715469996"><ele>931</ele><time>2012-07-14T12:19:03Z</time></trkpt>
<trkpt lat="53.1553766727" lon="-3.9714248021"><ele>931</ele><time>2012-07-14T12:19:22Z</time></trkpt>
<trkpt lat="53.1555068334" lon="-3.9713514964"><ele>933</ele><time>2012-07-14T12:19:38Z</time></trkpt>
<trkpt lat="53.1556411743" lon="-3.9713045120"><ele>933</ele><time>2012-07-14T12:19:51Z</time></trkpt>
<trkpt lat="53.1557783286" lon="-3.9712538401"><ele>939</ele><time>2012-07-14T12:21:23Z</time></trkpt>
<trkpt lat="53.1559144974" lon="-3.9712148031"><ele>941</ele><time>2012-07-14T12:21:44Z</time></trkpt>
<trkpt lat="53.1560431639" lon="-3.9711461385"><ele>944</ele><time>2012-07-14T12:22:07Z</time></trkpt>
<trkpt lat="53.1561841647" lon="-3.9711380005"><ele>946</ele><time>2012-07-14T12:22:29Z</time></trkpt>
<trkpt lat="53.1563020070" lon="-3.9710276922"><ele>949</ele><time>2012-07-14T12:22:51Z</time></trkpt>
<trkpt lat="53.1563889980" lon="-3.9708543142"><ele>952</ele><time>2012-07-14T12:23:09Z</time></trkpt>
<trkpt lat="53.1565076669" lon="-3.9707319895"><ele>955</ele><time>2012-07-14T12:23:26Z</time></trkpt>
<trkpt lat="53.1566438357" lon="-3.9706961950"><ele>957</ele><time>2012-07-14T12:23:40Z</time></trkpt>
<trkpt lat="53.1567826589" lon="-3.9706283569"><ele>960</ele><time>2012-07-14T12:23:55Z</time></trkpt>
<trkpt lat="53.1569155057" lon="-3.9705874761"><ele>962</ele><time>2012-07-14T12:24:12Z</time></trkpt>
<trkpt lat="53.1570256710" lon="-3.9704449972"><ele>965</ele><time>2012-07-14T12:24:34Z</time></trkpt>
<trkpt lat="53.1571605047" lon="-3.9704968135"><ele>969</ele><time>2012-07-14T12:24:56Z</time></trkpt>
<trkpt lat="53.1572924932" lon="-3.9705426534"><ele>972</ele><time>2012-07-14T12:25:16Z</time></trkpt>
<trkpt lat="53.1574248314" lon="-3.9706191381"><ele>976</ele><time>2012-07-14T12:25:36Z</time></trkpt>
<trkpt lat="53.1575596650" lon="-3.9706531525"><ele>980</ele><time>2012-07-14T12:25:52Z</time></trkpt>
<trkpt lat="53.1577040037" lon="-3.9706456502"><ele>983</ele><time>2012-07-14T12:26:08Z</time></trkpt>
<trkpt lat="53.1578403314" lon="-3.9706081390"><ele>986</ele><time>2012-07-14T12:26:28Z</time></trkpt>
<trkpt lat="53.1579724948" lon="-3.9705618540"><ele>989</ele><time>2012-07-14T12:26:45Z</time></trkpt>
<trkpt lat="53.1581078370" lon="-3.9705959956"><ele>993</ele><time>2012-07-14T12:27:06Z</time></trkpt>
<trkpt lat="53.1582379977" lon="-3.9706596375"><ele>996</ele><time>2012-07-14T12:27:26Z</time></trkpt>
<trkpt lat="53.1583733400" lon="-3.9706838608"><ele>1000</ele><time>2012-07-14T12:27:48Z</time></trkpt>
<trkpt lat="53.1585075061" lon="-3.9707380295"><ele>1003</ele><time>2012-07-14T12:28:07Z</time></trkpt>
<trkpt lat="53.1586458365" lon="-3.9707423528"><ele>1008</ele><time>2012-07-14T12:28:30Z</time></trkpt>
<trkpt lat="53.1587903341" lon="-3.9707028071"><ele>1012</ele><time>2012-07-14T12:28:52Z</time></trkpt>
<trkpt lat="53.1589245001" lon="-3.9706773122"><ele>1017</ele><time>2012-07-14T12:29:18Z</time></trkpt>
<trkpt lat="53.1590483348" lon="-3.9707831701"><ele>1022</ele><time>2012-07-14T12:29:41Z</time></trkpt>
<trkpt lat="53.1591735045" lon="-3.9706944784"><ele>1025</ele><time>2012-07-14T12:29:57Z</time></trkpt>
<trkpt lat="53.1593061606" lon="-3.9706471761"><ele>1033</ele><time>2012-07-14T12:30:15Z</time></trkpt>
<trkpt lat="53.1594409943" lon="-3.9705940247"><ele>1040</ele><time>2012-07-14T12:30:30Z</time></trkpt>
<trkpt lat="53.1595794996" lon="-3.9705935160"><ele>1043</ele><time>2012-07-14T12:30:46Z</time></trkpt>
<trkpt lat="53.1597141743" lon="-3.9705378215"><ele>1046</ele><time>2012-07-14T12:31:08Z</time></trkpt>
<trkpt lat="53.1598253409" lon="-3.9704029719"><ele>1049</ele><time>2012-07-14T12:31:25Z</time></trkpt>
<trkpt lat="53.1599290053" lon="-3.9702440262"><ele>1052</ele><time>2012-07-14T12:31:43Z</time></trkpt>
<trkpt lat="53.1600633303" lon="-3.9703021367"><ele>1056</ele><time>2012-07-14T12:32:04Z</time></trkpt>
<trkpt lat="53.1601701736" lon="-3.9704449972"><ele>1062</ele><time>2012-07-14T12:44:57Z</time></trkpt>
<trkpt lat="53.1602843285" lon="-3.9705756505"><ele>1061</ele><time>2012-07-14T12:45:16Z</time></trkpt>
<trkpt lat="53.1604011695" lon="-3.9707111359"><ele>1061</ele><time>2012-07-14T12:45:32Z</time></trkpt>
<trkpt lat="53.1604986668" lon="-3.9708708445"><ele>1061</ele><time>2012-07-14T12:45:48Z</time></trkpt>
<trkpt lat="53.1605853399" lon="-3.9710646947"><ele>1061</ele><time>2012-07-14T12:46:01Z</time></trkpt>
<trkpt lat="53.1606569926" lon="-3.9712551753"><ele>1061</ele><time>2012-07-14T12:46:13Z</time></trkpt>
<trkpt lat="53.1607586702" lon="-3.9714158376"><ele>1061</ele><time>2012-07-14T12:46:26Z</time></trkpt>
<trkpt lat="53.1608401616" lon="-3.9716136932"><ele>1061</ele><time>2012-07-14T12:46:38Z</time></trkpt>
<trkpt lat="53.1609104951" lon="-3.9718183517"><ele>1060</ele><time>2012-07-14T12:46:50Z</time></trkpt>
<trkpt lat="53.1609855016" lon="-3.9720218023"><ele>1060</ele><time>2012-07-14T12:47:02Z</time></trkpt>
<trkpt lat="53.1610488256" lon="-3.9722209930"><ele>1060</ele><time>2012-07-14T12:47:13Z</time></trkpt>
<trkpt lat="53.1610856692" lon="-3.9724529902"><ele>1060</ele><time>2012-07-14T12:47:29Z</time></trkpt>
<trkpt lat="53.1611868382" lon="-3.9726289749"><ele>1059</ele><time>2012-07-14T12:47:42Z</time></trkpt>
<trkpt lat="53.1612783273" lon="-3.9728041967"><ele>1059</ele><time>2012-07-14T12:47:54Z</time></trkpt>
<trkpt lat="53.1613561630" lon="-3.9730028152"><ele>1058</ele><time>2012-07-14T12:48:07Z</time></trkpt>
<trkpt lat="53.1614193281" lon="-3.9732146581"><ele>1057</ele><time>2012-07-14T12:48:20Z</time></trkpt>
<trkpt lat="53.1614308357" lon="-3.9734481812"><ele>1056</ele><time>2012-07-14T12:48:35Z</time></trkpt>
<trkpt lat="53.1615131696" lon="-3.9736265182"><ele>1054</ele><time>2012-07-14T12:50:48Z</time></trkpt>
<trkpt lat="53.1615768274" lon="-3.9738304774"><ele>1053</ele><time>2012-07-14T12:51:04Z</time></trkpt>
<trkpt lat="53.1616603374" lon="-3.9740093231"><ele>1052</ele><time>2012-07-14T12:51:24Z</time></trkpt>
<trkpt lat="53.1617113272" lon="-3.9742226919"><ele>1050</ele><time>2012-07-14T12:51:43Z</time></trkpt>
<trkpt lat="53.1617296696" lon="-3.9744469961"><ele>1042</ele><time>2012-07-14T12:52:10Z</time></trkpt>
<trkpt lat="53.1618158340" lon="-3.9746269862"><ele>1042</ele><time>2012-07-14T12:52:25Z</time></trkpt>
<trkpt lat="53.1618723392" lon="-3.9748396556"><ele>1039</ele><time>2012-07-14T12:52:44Z</time></trkpt>
<trkpt lat="53.1618628343" lon="-3.9750733058"><ele>1034</ele><time>2012-07-14T12:53:05Z</time></trkpt>
<trkpt lat="53.1618888378" lon="-3.9753040314"><ele>1031</ele><time>2012-07-14T12:53:15Z</time></trkpt>
<trkpt lat="53.1619066715" lon="-3.9755441666"><ele>1027</ele><time>2012-07-14T12:53:27Z</time></trkpt>
<trkpt lat="53.1619163354" lon="-3.9757741928"><ele>1025</ele><time>2012-07-14T12:53:39Z</time></trkpt>
<trkpt lat="53.1618779977" lon="-3.9760078430"><ele>1023</ele><time>2012-07-14T12:53:51Z</time></trkpt>
<trkpt lat="53.1618451595" lon="-3.9762336731"><ele>1021</ele><time>2012-07-14T12:54:03Z</time></trkpt>
<trkpt lat="53.1618665059" lon="-3.9764636358"><ele>1018</ele><time>2012-07-14T12:54:16Z</time></trkpt>
<trkpt lat="53.1618710041" lon="-3.9767000198"><ele>1015</ele><time>2012-07-14T12:54:29Z</time></trkpt>
<trkpt lat="53.1619430065" lon="-3.9769053141"><ele>1012</ele><time>2012-07-14T12:54:41Z</time></trkpt>
<trkpt lat="53.1619861603" lon="-3.9771193186"><ele>1012</ele><time>2012-07-14T12:55:39Z</time></trkpt>
<trkpt lat="53.1620006720" lon="-3.9773496628"><ele>1011</ele><time>2012-07-14T12:55:58Z</time></trkpt>
<trkpt lat="53.1619773388" lon="-3.9775818507"><ele>1007</ele><time>2012-07-14T12:56:12Z</time></trkpt>
<trkpt lat="53.1620078405" lon="-3.9778113047"><ele>1004</ele><time>2012-07-14T12:56:28Z</time></trkpt>
<trkpt lat="53.1620546659" lon="-3.9780278524"><ele>1000</ele><time>2012-07-14T12:56:47Z</time></trkpt>
<trkpt lat="53.1621258259" lon="-3.9782188416"><ele>997</ele><time>2012-07-14T12:57:00Z</time></trkpt>
<trkpt lat="53.1622324944" lon="-3.9783791860"><ele>993</ele><time>2012-07-14T12:57:17Z</time></trkpt>
<trkpt lat="53.1622879982" lon="-3.9785999934"><ele>989</ele><time>2012-07-14T12:57:32Z</time></trkpt>
<trkpt lat="53.1623226643" lon="-3.9788209915"><ele>986</ele><time>2012-07-14T12:57:48Z</time></trkpt>
<trkpt lat="53.1623396715" lon="-3.9790521622"><ele>983</ele><time>2012-07-14T12:58:05Z</time></trkpt>
<trkpt lat="53.1623935064" lon="-3.9792640050"><ele>979</ele><time>2012-07-14T12:58:22Z</time></trkpt>
<trkpt lat="53.1624049981" lon="-3.9794960022"><ele>975</ele><time>2012-07-14T12:58:43Z</time></trkpt>
<trkpt lat="53.1623796622" lon="-3.9797256470"><ele>971</ele><time>2012-07-14T12:59:04Z</time></trkpt>
<trkpt lat="53.1624091625" lon="-3.9799479802"><ele>970</ele><time>2012-07-14T12:59:19Z</time></trkpt>
<trkpt lat="53.1624759992" lon="-3.9801504771"><ele>968</ele><time>2012-07-14T12:59:42Z</time></trkpt>
<trkpt lat="53.1625309944" lon="-3.9803611755"><ele>965</ele><time>2012-07-14T13:00:03Z</time></trkpt>
<trkpt lat="53.1626333396" lon="-3.9805123647"><ele>961</ele><time>2012-07-14T13:00:28Z</time></trkpt>
<trkpt lat="53.1627731641" lon="-3.9805149714"><ele>958</ele><time>2012-07-14T13:00:46Z</time></trkpt>
<trkpt lat="53.1629113356" lon="-3.9805405299"><ele>955</ele><time>2012-07-14T13:00:57Z</time></trkpt>
<trkpt lat="53.1629950047" lon="-3.9807238261"><ele>950</ele><time>2012-07-14T13:01:22Z</time></trkpt>
<trkpt lat="53.1630870024" lon="-3.9809016546"><ele>943</ele><time>2012-07-14T13:01:44Z</time></trkpt>
<trkpt lat="53.1631898403" lon="-3.9810653051"><ele>937</ele><time>2012-07-14T13:02:01Z</time></trkpt>
<trkpt lat="53.1632033348" lon="-3.9812948227"><ele>912</ele><time>2012-07-14T13:04:19Z</time></trkpt>
<trkpt lat="53.1632841746" lon="-3.9814866384"><ele>911</ele><time>2012-07-14T13:04:30Z</time></trkpt>
<trkpt lat="53.1632939974" lon="-3.9817238490"><ele>911</ele><time>2012-07-14T13:04:44Z</time></trkpt>
<trkpt lat="53.1633056641" lon="-3.9819701513"><ele>912</ele><time>2012-07-14T13:04:56Z</time></trkpt>
<trkpt lat="53.1634146690" lon="-3.9821409861"><ele>913</ele><time>2012-07-14T13:05:09Z</time></trkpt>
<trkpt lat="53.1635423342" lon="-3.9822264989"><ele>914</ele><time>2012-07-14T13:05:20Z</time></trkpt>
<trkpt lat="53.1636455059" lon="-3.9823734919"><ele>915</ele><time>2012-07-14T13:05:33Z</time></trkpt>
<trkpt lat="53.1637376626" lon="-3.9825480143"><ele>915</ele><time>2012-07-14T13:05:45Z</time></trkpt>
<trkpt lat="53.1638321718" lon="-3.9827128092"><ele>915</ele><time>2012-07-14T13:05:57Z</time></trkpt>
<trkpt lat="53.1639091651" lon="-3.9829081853"><ele>915</ele><time>2012-07-14T13:06:10Z</time></trkpt>
<trkpt lat="53.1639988263" lon="-3.9830980301"><ele>916</ele><time>2012-07-14T13:06:25Z</time></trkpt>
<trkpt lat="53.1640293280" lon="-3.9833211899"><ele>917</ele><time>2012-07-14T13:06:38Z</time></trkpt>
<trkpt lat="53.1641170025" lon="-3.9835065206"><ele>917</ele><time>2012-07-14T13:06:49Z</time></trkpt>
<trkpt lat="53.1641274929" lon="-3.9837340037"><ele>920</ele><time>2012-07-14T13:07:11Z</time></trkpt>
<trkpt lat="53.1642151674" lon="-3.9839068095"><ele>921</ele><time>2012-07-14T13:07:23Z</time></trkpt>
<trkpt lat="53.1642798265" lon="-3.9841183345"><ele>921</ele><time>2012-07-14T13:07:38Z</time></trkpt>
<trkpt lat="53.1643705050" lon="-3.9842993418"><ele>922</ele><time>2012-07-14T13:07:51Z</time></trkpt>
<trkpt lat="53.1644814968" lon="-3.9844328562"><ele>923</ele><time>2012-07-14T13:08:06Z</time></trkpt>
<trkpt lat="53.1645708402" lon="-3.9846248627"><ele>924</ele><time>2012-07-14T13:08:25Z</time></trkpt>
<trkpt lat="53.1646080017" lon="-3.9848578135"><ele>926</ele><time>2012-07-14T13:08:39Z</time></trkpt>
<trkpt lat="53.1646693389" lon="-3.9850736618"><ele>928</ele><time>2012-07-14T13:08:53Z</time></trkpt>
<trkpt lat="53.1647558371" lon="-3.9852509816"><ele>930</ele><time>2012-07-14T13:09:04Z</time></trkpt>
<trkpt lat="53.1648866653" lon="-3.9853499730"><ele>932</ele><time>2012-07-14T13:09:20Z</time></trkpt>
<trkpt lat="53.1650228341" lon="-3.9854273478"><ele>934</ele><time>2012-07-14T13:09:33Z</time></trkpt>
<trkpt lat="53.1651528358" lon="-3.9855056763"><ele>935</ele><time>2012-07-14T13:09:44Z</time></trkpt>
<trkpt lat="53.1652829965" lon="-3.9855808258"><ele>936</ele><time>2012-07-14T13:09:56Z</time></trkpt>
<trkpt lat="53.1654064973" lon="-3.9856906891"><ele>937</ele><time>2012-07-14T13:10:08Z</time></trkpt>
<trkpt lat="53.1655591647" lon="-3.9856889725"><ele>939</ele><time>2012-07-14T13:10:18Z</time></trkpt>
<trkpt lat="53.1656941732" lon="-3.9857529958"><ele>939</ele><time>2012-07-14T13:10:30Z</time></trkpt>
<trkpt lat="53.1658088366" lon="-3.9858891805"><ele>940</ele><time>2012-07-14T13:10:46Z</time></trkpt>
<trkpt lat="53.1659518401" lon="-3.9858808517"><ele>949</ele><time>2012-07-14T13:11:16Z</time></trkpt>
<trkpt lat="53.1660879930" lon="-3.9858135223"><ele>950</ele><time>2012-07-14T13:11:27Z</time></trkpt>
<trkpt lat="53.1662113349" lon="-3.9856868108"><ele>952</ele><time>2012-07-14T13:11:42Z</time></trkpt>
<trkpt lat="53.1663094997" lon="-3.9855110168"><ele>954</ele><time>2012-07-14T13:11:53Z</time></trkpt>
<trkpt lat="53.1664419969" lon="-3.9855571747"><ele>963</ele><time>2012-07-14T13:12:38Z</time></trkpt>
<trkpt lat="53.1665538311" lon="-3.9854306539"><ele>965</ele><time>2012-07-14T13:12:51Z</time></trkpt>
<trkpt lat="53.1666323344" lon="-3.9856280009"><ele>966</ele><time>2012-07-14T13:13:48Z</time></trkpt>
<trkpt lat="53.1666851679" lon="-3.9858361562"><ele>966</ele><time>2012-07-14T13:14:07Z</time></trkpt>
<trkpt lat="53.1667296727" lon="-3.9860628128"><ele>967</ele><time>2012-07-14T13:14:27Z</time></trkpt>
<trkpt lat="53.1667888323" lon="-3.9862778346"><ele>967</ele><time>2012-07-14T13:14:42Z</time></trkpt>
<trkpt lat="53.1668564955" lon="-3.9864854813"><ele>964</ele><time>2012-07-14T13:23:53Z</time></trkpt>
<trkpt lat="53.1669558366" lon="-3.9866441727"><ele>963</ele><time>2012-07-14T13:24:15Z</time></trkpt>
<trkpt lat="53.1670114994" lon="-3.9868541718"><ele>961</ele><time>2012-07-14T13:24:37Z</time></trkpt>
<trkpt lat="53.1669586658" lon="-3.9870693207"><ele>960</ele><time>2012-07-14T13:24:55Z</time></trkpt>
<trkpt lat="53.1669273376" lon="-3.9872898102"><ele>957</ele><time>2012-07-14T13:25:15Z</time></trkpt>
<trkpt lat="53.1668979963" lon="-3.9875166575"><ele>950</ele><time>2012-07-14T13:25:42Z</time></trkpt>
<trkpt lat="53.1669199944" lon="-3.9877476374"><ele>944</ele><time>2012-07-14T13:26:10Z</time></trkpt>
<trkpt lat="53.1670499961" lon="-3.9878414790"><ele>936</ele><time>2012-07-14T13:26:35Z</time></trkpt>
<trkpt lat="53.1670861721" lon="-3.9880633036"><ele>927</ele><time>2012-07-14T13:27:10Z</time></trkpt>
<trkpt lat="53.1672233264" lon="-3.9879919688"><ele>920</ele><time>2012-07-14T13:27:32Z</time></trkpt>
<trkpt lat="53.1672900041" lon="-3.9881968180"><ele>904</ele><time>2012-07-14T13:28:22Z</time></trkpt>
<trkpt lat="53.1672550042" lon="-3.9884158452"><ele>901</ele><time>2012-07-14T13:28:45Z</time></trkpt>
<trkpt lat="53.1673273404" lon="-3.9886071523"><ele>895</ele><time>2012-07-14T13:29:11Z</time></trkpt>
<trkpt lat="53.1674493313" lon="-3.9887323380"><ele>875</ele><time>2012-07-14T13:30:20Z</time></trkpt>
<trkpt lat="53.1675383409" lon="-3.9889095306"><ele>870</ele><time>2012-07-14T13:30:44Z</time></trkpt>
<trkpt lat="53.1676608404" lon="-3.9890153249"><ele>866</ele><time>2012-07-14T13:31:01Z</time></trkpt>
<trkpt lat="53.1677191734" lon="-3.9892258326"><ele>863</ele><time>2012-07-14T13:31:18Z</time></trkpt>
<trkpt lat="53.1678041617" lon="-3.9894030253"><ele>852</ele><time>2012-07-14T13:32:02Z</time></trkpt>
<trkpt lat="53.1678953330" lon="-3.9895804723"><ele>846</ele><time>2012-07-14T13:32:18Z</time></trkpt>
<trkpt lat="53.1679969947" lon="-3.9897326787"><ele>841</ele><time>2012-07-14T13:32:32Z</time></trkpt>
<trkpt lat="53.1680860043" lon="-3.9899021784"><ele>838</ele><time>2012-07-14T13:32:44Z</time></trkpt>
<trkpt lat="53.1681393305" lon="-3.9901088079"><ele>835</ele><time>2012-07-14T13:32:56Z</time></trkpt>
<trkpt lat="53.1682189941" lon="-3.9903078079"><ele>833</ele><time>2012-07-14T13:33:07Z</time></trkpt>
<trkpt lat="53.1682964961" lon="-3.9905188243"><ele>830</ele><time>2012-07-14T13:33:19Z</time></trkpt>
<trkpt lat="53.1683913390" lon="-3.9906855265"><ele>826</ele><time>2012-07-14T13:33:31Z</time></trkpt>
<trkpt lat="53.1684854984" lon="-3.9908554713"><ele>823</ele><time>2012-07-14T13:33:41Z</time></trkpt>
<trkpt lat="53.1685578346" lon="-3.9910449982"><ele>819</ele><time>2012-07-14T13:33:55Z</time></trkpt>
<trkpt lat="53.1686703364" lon="-3.9912081401"><ele>817</ele><time>2012-07-14T13:34:05Z</time></trkpt>
<trkpt lat="53.1687651634" lon="-3.9913886388"><ele>814</ele><time>2012-07-14T13:34:16Z</time></trkpt>
<trkpt lat="53.1688885053" lon="-3.9915146510"><ele>811</ele><time>2012-07-14T13:34:27Z</time></trkpt>
<trkpt lat="53.1690014998" lon="-3.9916460037"><ele>808</ele><time>2012-07-14T13:34:37Z</time></trkpt>
<trkpt lat="53.1691211700" lon="-3.9917626699"><ele>806</ele><time>2012-07-14T13:34:48Z</time></trkpt>
<trkpt lat="53.1692289988" lon="-3.9919098536"><ele>804</ele><time>2012-07-14T13:34:59Z</time></trkpt>
<trkpt lat="53.1693481604" lon="-3.9920321782"><ele>802</ele><time>2012-07-14T13:35:09Z</time></trkpt>
<trkpt lat="53.1694035053" lon="-3.9922546387"><ele>800</ele><time>2012-07-14T13:35:21Z</time></trkpt>
<trkpt lat="53.1694333394" lon="-3.9924853643"><ele>798</ele><time>2012-07-14T13:35:34Z</time></trkpt>
<trkpt lat="53.1695016702" lon="-3.9926994960"><ele>793</ele><time>2012-07-14T13:36:22Z</time></trkpt>
<trkpt lat="53.1695539951" lon="-3.9929086685"><ele>791</ele><time>2012-07-14T13:36:34Z</time></trkpt>
<trkpt lat="53.1694839954" lon="-3.9931076686"><ele>783</ele><time>2012-07-14T13:37:38Z</time></trkpt>
<trkpt lat="53.1695101738" lon="-3.9933388392"><ele>774</ele><time>2012-07-14T13:41:36Z</time></trkpt>
<trkpt lat="53.1695004940" lon="-3.9935770035"><ele>772</ele><time>2012-07-14T13:41:53Z</time></trkpt>
<trkpt lat="53.1695675055" lon="-3.9937773387"><ele>770</ele><time>2012-07-14T13:42:09Z</time></trkpt>
<trkpt lat="53.1695696672" lon="-3.9940020243"><ele>767</ele><time>2012-07-14T13:42:27Z</time></trkpt>
<trkpt lat="53.1695820014" lon="-3.9942258199"><ele>766</ele><time>2012-07-14T13:42:37Z</time></trkpt>
<trkpt lat="53.1696173350" lon="-3.9944585164"><ele>762</ele><time>2012-07-14T13:42:52Z</time></trkpt>
<trkpt lat="53.1696053346" lon="-3.9946961721"><ele>760</ele><time>2012-07-14T13:43:05Z</time></trkpt>
<trkpt lat="53.1695461591" lon="-3.9948989868"><ele>758</ele><time>2012-07-14T13:43:18Z</time></trkpt>
<trkpt lat="53.1696846644" lon="-3.9949775060"><ele>754</ele><time>2012-07-14T13:43:31Z</time></trkpt>
<trkpt lat="53.1696101665" lon="-3.9951693217"><ele>749</ele><time>2012-07-14T13:43:46Z</time></trkpt>
<trkpt lat="53.1695993265" lon="-3.9954004924"><ele>743</ele><time>2012-07-14T13:44:08Z</time></trkpt>
<trkpt lat="53.1695396741" lon="-3.9956038157"><ele>738</ele><time>2012-07-14T13:44:25Z</time></trkpt>
<trkpt lat="53.1695976734" lon="-3.9958143234"><ele>733</ele><time>2012-07-14T13:44:43Z</time></trkpt>
<trkpt lat="53.1696501732" lon="-3.9960369746"><ele>732</ele><time>2012-07-14T13:44:57Z</time></trkpt>
<trkpt lat="53.1696898301" lon="-3.9962781906"><ele>730</ele><time>2012-07-14T13:45:09Z</time></trkpt>
<trkpt lat="53.1697504997" lon="-3.9964931488"><ele>728</ele><time>2012-07-14T13:45:21Z</time></trkpt>
<trkpt lat="53.1698338350" lon="-3.9966929754"><ele>725</ele><time>2012-07-14T13:45:33Z</time></trkpt>
<trkpt lat="53.1698891640" lon="-3.9969173431"><ele>722</ele><time>2012-07-14T13:45:45Z</time></trkpt>
<trkpt lat="53.1699399948" lon="-3.9971358617"><ele>720</ele><time>2012-07-14T13:45:56Z</time></trkpt>
<trkpt lat="53.1700164954" lon="-3.9973388036"><ele>717</ele><time>2012-07-14T13:46:06Z</time></trkpt>
<trkpt lat="53.1700901667" lon="-3.9975475311"><ele>714</ele><time>2012-07-14T13:46:16Z</time></trkpt>
<trkpt lat="53.1701068401" lon="-3.9978010178"><ele>711</ele><time>2012-07-14T13:46:26Z</time></trkpt>
<trkpt lat="53.1701149940" lon="-3.9980526606"><ele>708</ele><time>2012-07-14T13:46:38Z</time></trkpt>
<trkpt lat="53.1700581710" lon="-3.9982676824"><ele>706</ele><time>2012-07-14T13:46:48Z</time></trkpt>
<trkpt lat="53.1700283368" lon="-3.9984879812"><ele>705</ele><time>2012-07-14T13:46:58Z</time></trkpt>
<trkpt lat="53.1699991703" lon="-3.9987276713"><ele>703</ele><time>2012-07-14T13:47:09Z</time></trkpt>
<trkpt lat="53.1699291706" lon="-3.9989264806"><ele>701</ele><time>2012-07-14T13:47:19Z</time></trkpt>
<trkpt lat="53.1699004968" lon="-3.9991606394"><ele>697</ele><time>2012-07-14T13:47:41Z</time></trkpt>
<trkpt lat="53.1698650042" lon="-3.9993799845"><ele>695</ele><time>2012-07-14T13:47:55Z</time></trkpt>
<trkpt lat="53.1698243300" lon="-3.9996363322"><ele>693</ele><time>2012-07-14T13:48:05Z</time></trkpt>
<trkpt lat="53.1698148410" lon="-3.9998616536"><ele>691</ele><time>2012-07-14T13:48:20Z</time></trkpt>
<trkpt lat="53.1697723389" lon="-4.0000868333"><ele>688</ele><time>2012-07-14T13:48:34Z</time></trkpt>
<trkpt lat="53.1697761695" lon="-4.0003111667"><ele>685</ele><time>2012-07-14T13:48:53Z</time></trkpt>
<trkpt lat="53.1698499997" lon="-4.0005136667"><ele>682</ele><time>2012-07-14T13:49:07Z</time></trkpt>
<trkpt lat="53.1698973338" lon="-4.0007318333"><ele>679</ele><time>2012-07-14T13:49:23Z</time></trkpt>
<trkpt lat="53.1699275017" lon="-4.0009548333"><ele>674</ele><time>2012-07-14T13:49:41Z</time></trkpt>
<trkpt lat="53.1699538390" lon="-4.0011788333"><ele>668</ele><time>2012-07-14T13:49:59Z</time></trkpt>
<trkpt lat="53.1700390021" lon="-4.0013591667"><ele>665</ele><time>2012-07-14T13:50:12Z</time></trkpt>
<trkpt lat="53.1701018333" lon="-4.0015645000"><ele>661</ele><time>2012-07-14T13:50:26Z</time></trkpt>
<trkpt lat="53.1701206684" lon="-4.0017931666"><ele>654</ele><time>2012-07-14T13:50:43Z</time></trkpt>
<trkpt lat="53.1700795015" lon="-4.0020163334"><ele>650</ele><time>2012-07-14T13:50:55Z</time></trkpt>
<trkpt lat="53.1700984955" lon="-4.0022543333"><ele>644</ele><time>2012-07-14T13:51:09Z</time></trkpt>
<trkpt lat="53.1701670011" lon="-4.0024823333"><ele>639</ele><time>2012-07-14T13:51:22Z</time></trkpt>
<trkpt lat="53.1702130000" lon="-4.0027123335"><ele>635</ele><time>2012-07-14T13:51:33Z</time></trkpt>
<trkpt lat="53.1702796618" lon="-4.0029175001"><ele>631</ele><time>2012-07-14T13:51:46Z</time></trkpt>
<trkpt lat="53.1703114986" lon="-4.0031430001"><ele>625</ele><time>2012-07-14T13:52:00Z</time></trkpt>
<trkpt lat="53.1703316689" lon="-4.0034855001"><ele>611</ele><time>2012-07-14T13:52:10Z</time></trkpt>
<trkpt lat="53.1703461647" lon="-4.0037133334"><ele>595</ele><time>2012-07-14T13:52:24Z</time></trkpt>
<trkpt lat="53.1703893344" lon="-4.0039461667"><ele>592</ele><time>2012-07-14T13:52:37Z</time></trkpt>
<trkpt lat="53.1704741637" lon="-4.0041354999"><ele>584</ele><time>2012-07-14T13:53:04Z</time></trkpt>
<trkpt lat="53.1705038389" lon="-4.0043556665"><ele>581</ele><time>2012-07-14T13:53:20Z</time></trkpt>
<trkpt lat="53.1705246607" lon="-4.0045878331"><ele>578</ele><time>2012-07-14T13:53:31Z</time></trkpt>
<trkpt lat="53.1705921650" lon="-4.0047821666"><ele>575</ele><time>2012-07-14T13:53:43Z</time></trkpt>
<trkpt lat="53.1706400077" lon="-4.0050120001"><ele>573</ele><time>2012-07-14T13:53:53Z</time></trkpt>
<trkpt lat="53.1706886609" lon="-4.0052275002"><ele>571</ele><time>2012-07-14T13:54:04Z</time></trkpt>
<trkpt lat="53.1707466602" lon="-4.0054458335"><ele>569</ele><time>2012-07-14T13:54:15Z</time></trkpt>
<trkpt lat="53.1708003362" lon="-4.0056789999"><ele>568</ele><time>2012-07-14T13:54:25Z</time></trkpt>
<trkpt lat="53.1708584944" lon="-4.0059133331"><ele>565</ele><time>2012-07-14T13:54:35Z</time></trkpt>
<trkpt lat="53.1708913326" lon="-4.0061968332"><ele>558</ele><time>2012-07-14T13:54:45Z</time></trkpt>
<trkpt lat="53.1709349950" lon="-4.0064263334"><ele>553</ele><time>2012-07-14T13:54:55Z</time></trkpt>
<trkpt lat="53.1709751606" lon="-4.0066505000"><ele>549</ele><time>2012-07-14T13:55:08Z</time></trkpt>
<trkpt lat="53.1710271676" lon="-4.0068740000"><ele>547</ele><time>2012-07-14T13:55:18Z</time></trkpt>
<trkpt lat="53.1710600058" lon="-4.0070945000"><ele>544</ele><time>2012-07-14T13:55:28Z</time></trkpt>
<trkpt lat="53.1711023331" lon="-4.0073288331"><ele>542</ele><time>2012-07-14T13:55:39Z</time></trkpt>
<trkpt lat="53.1711730003" lon="-4.0075320000"><ele>540</ele><time>2012-07-14T13:55:49Z</time></trkpt>
<trkpt lat="53.1712468306" lon="-4.0077406665"><ele>538</ele><time>2012-07-14T13:55:59Z</time></trkpt>
<trkpt lat="53.1712920030" lon="-4.0079771668"><ele>536</ele><time>2012-07-14T13:56:09Z</time></trkpt>
<trkpt lat="53.1713280042" lon="-4.0082131669"><ele>534</ele><time>2012-07-14T13:56:19Z</time></trkpt>
<trkpt lat="53.1713795026" lon="-4.0084274997"><ele>532</ele><time>2012-07-14T13:56:29Z</time></trkpt>
<trkpt lat="53.1714304924" lon="-4.0086605002"><ele>530</ele><time>2012-07-14T13:56:40Z</time></trkpt>
<trkpt lat="53.1714801629" lon="-4.0088868330"><ele>529</ele><time>2012-07-14T13:56:51Z</time></trkpt>
<trkpt lat="53.1715398312" lon="-4.0090996663"><ele>527</ele><time>2012-07-14T13:57:01Z</time></trkpt>
<trkpt lat="53.1716046651" lon="-4.0093071669"><ele>526</ele><time>2012-07-14T13:57:11Z</time></trkpt>
<trkpt lat="53.1716716607" lon="-4.0095213334"><ele>525</ele><time>2012-07-14T13:57:22Z</time></trkpt>
<trkpt lat="53.1717383385" lon="-4.0097288330"><ele>524</ele><time>2012-07-14T13:57:32Z</time></trkpt>
<trkpt lat="53.1717986743" lon="-4.0099366665"><ele>523</ele><time>2012-07-14T13:57:42Z</time></trkpt>
<trkpt lat="53.1718524933" lon="-4.0101608336"><ele>522</ele><time>2012-07-14T13:57:52Z</time></trkpt>
<trkpt lat="53.1719176610" lon="-4.0103788336"><ele>521</ele><time>2012-07-14T13:58:02Z</time></trkpt>
<trkpt lat="53.1719693343" lon="-4.0105921666"><ele>519</ele><time>2012-07-14T13:58:13Z</time></trkpt>
<trkpt lat="53.1720158259" lon="-4.0108163337"><ele>518</ele><time>2012-07-14T13:58:23Z</time></trkpt>
<trkpt lat="53.1720851739" lon="-4.0110119998"><ele>517</ele><time>2012-07-14T13:58:33Z</time></trkpt>
<trkpt lat="53.1721501668" lon="-4.0112189998"><ele>517</ele><time>2012-07-14T13:58:44Z</time></trkpt>
<trkpt lat="53.1721673330" lon="-4.0114464998"><ele>516</ele><time>2012-07-14T13:58:57Z</time></trkpt>
<trkpt lat="53.1722038269" lon="-4.0116663337"><ele>515</ele><time>2012-07-14T13:59:09Z</time></trkpt>
<trkpt lat="53.1722521623" lon="-4.0118923336"><ele>516</ele><time>2012-07-14T14:19:59Z</time></trkpt>
<trkpt lat="53.1723248323" lon="-4.0120959997"><ele>516</ele><time>2012-07-14T14:20:10Z</time></trkpt>
<trkpt lat="53.1724141598" lon="-4.0122813334"><ele>515</ele><time>2012-07-14T14:20:22Z</time></trkpt>
<trkpt lat="53.1725033283" lon="-4.0124753336"><ele>515</ele><time>2012-07-14T14:20:36Z</time></trkpt>
<trkpt lat="53.1725183328" lon="-4.0127110004"><ele>514</ele><time>2012-07-14T14:20:56Z</time></trkpt>
<trkpt lat="53.1726128260" lon="-4.0129011671"><ele>513</ele><time>2012-07-14T14:21:08Z</time></trkpt>
<trkpt lat="53.1726665020" lon="-4.0131131669"><ele>512</ele><time>2012-07-14T14:21:21Z</time></trkpt>
<trkpt lat="53.1727551619" lon="-4.0132868330"><ele>511</ele><time>2012-07-14T14:21:33Z</time></trkpt>
<trkpt lat="53.1728099982" lon="-4.0135151664"><ele>510</ele><time>2012-07-14T14:21:44Z</time></trkpt>
<trkpt lat="53.1728608290" lon="-4.0137305001"><ele>508</ele><time>2012-07-14T14:21:59Z</time></trkpt>
<trkpt lat="53.1729116599" lon="-4.0139548331"><ele>507</ele><time>2012-07-14T14:22:15Z</time></trkpt>
<trkpt lat="53.1729356607" lon="-4.0141826669"><ele>505</ele><time>2012-07-14T14:22:31Z</time></trkpt>
<trkpt lat="53.1729961713" lon="-4.0143834998"><ele>503</ele><time>2012-07-14T14:22:41Z</time></trkpt>
<trkpt lat="53.1730484962" lon="-4.0145991663"><ele>501</ele><time>2012-07-14T14:22:59Z</time></trkpt>
<trkpt lat="53.1731391589" lon="-4.0147686670"><ele>498</ele><time>2012-07-14T14:23:14Z</time></trkpt>
<trkpt lat="53.1731845061" lon="-4.0149889996"><ele>492</ele><time>2012-07-14T14:23:54Z</time></trkpt>
<trkpt lat="53.1732301712" lon="-4.0152084996"><ele>485</ele><time>2012-07-14T14:24:15Z</time></trkpt>
<trkpt lat="53.1731715043" lon="-4.0154359996"><ele>477</ele><time>2012-07-14T14:24:45Z</time></trkpt>
<trkpt lat="53.1731115023" lon="-4.0156396667"><ele>460</ele><time>2012-07-14T14:25:04Z</time></trkpt>
<trkpt lat="53.1731146653" lon="-4.0158770005"><ele>458</ele><time>2012-07-14T14:25:25Z</time></trkpt>
<trkpt lat="53.1731109937" lon="-4.0161180000"><ele>456</ele><time>2012-07-14T14:25:41Z</time></trkpt>
<trkpt lat="53.1730576674" lon="-4.0163366665"><ele>451</ele><time>2012-07-14T14:25:51Z</time></trkpt>
<trkpt lat="53.1730361621" lon="-4.0165666670"><ele>439</ele><time>2012-07-14T14:26:11Z</time></trkpt>
<trkpt lat="53.1730401675" lon="-4.0168068329"><ele>433</ele><time>2012-07-14T14:26:28Z</time></trkpt>
<trkpt lat="53.1730321725" lon="-4.0170353333"><ele>430</ele><time>2012-07-14T14:26:40Z</time></trkpt>
<trkpt lat="53.1731074969" lon="-4.0172399998"><ele>427</ele><time>2012-07-14T14:26:53Z</time></trkpt>
<trkpt lat="53.1731383324" lon="-4.0174715002"><ele>424</ele><time>2012-07-14T14:27:08Z</time></trkpt>
<trkpt lat="53.1731441657" lon="-4.0176983337"><ele>419</ele><time>2012-07-14T14:28:45Z</time></trkpt>
<trkpt lat="53.1731518269" lon="-4.0179461658"><ele>419</ele><time>2012-07-14T14:28:55Z</time></trkpt>
<trkpt lat="53.1731983344" lon="-4.0181623340"><ele>417</ele><time>2012-07-14T14:29:07Z</time></trkpt>
<trkpt lat="53.1732494990" lon="-4.0183928331"><ele>417</ele><time>2012-07-14T14:29:17Z</time></trkpt>
<trkpt lat="53.1732318401" lon="-4.0186153332"><ele>416</ele><time>2012-07-14T14:29:27Z</time></trkpt>
<trkpt lat="53.1732224941" lon="-4.0188458323"><ele>415</ele><time>2012-07-14T14:29:37Z</time></trkpt>
<trkpt lat="53.1732693354" lon="-4.0190658331"><ele>413</ele><time>2012-07-14T14:29:49Z</time></trkpt>
<trkpt lat="53.1733238379" lon="-4.0192818324"><ele>413</ele><time>2012-07-14T14:29:59Z</time></trkpt>
<trkpt lat="53.1733913263" lon="-4.0194911659"><ele>411</ele><time>2012-07-14T14:30:12Z</time></trkpt>
<trkpt lat="53.1734666665" lon="-4.0196791669"><ele>408</ele><time>2012-07-14T14:30:24Z</time></trkpt>
<trkpt lat="53.1734806697" lon="-4.0199043334"><ele>406</ele><time>2012-07-14T14:30:34Z</time></trkpt>
<trkpt lat="53.1735479991" lon="-4.0201016665"><ele>404</ele><time>2012-07-14T14:30:44Z</time></trkpt>
<trkpt lat="53.1736176650" lon="-4.0203089992"><ele>401</ele><time>2012-07-14T14:30:55Z</time></trkpt>
<trkpt lat="53.1737226645" lon="-4.0204689999"><ele>397</ele><time>2012-07-14T14:31:12Z</time></trkpt>
<trkpt lat="53.1737326622" lon="-4.0207080007"><ele>396</ele><time>2012-07-14T14:31:23Z</time></trkpt>
<trkpt lat="53.1738398393" lon="-4.0208526671"><ele>394</ele><time>2012-07-14T14:31:37Z</time></trkpt>
<trkpt lat="53.1739093304" lon="-4.0210509996"><ele>392</ele><time>2012-07-14T14:31:50Z</time></trkpt>
<trkpt lat="53.1739631653" lon="-4.0212678333"><ele>389</ele><time>2012-07-14T14:32:02Z</time></trkpt>
<trkpt lat="53.1740200043" lon="-4.0214878341"><ele>386</ele><time>2012-07-14T14:32:15Z</time></trkpt>
<trkpt lat="53.1740825017" lon="-4.0216978331"><ele>384</ele><time>2012-07-14T14:32:27Z</time></trkpt>
<trkpt lat="53.1741543293" lon="-4.0218945007"><ele>383</ele><time>2012-07-14T14:32:40Z</time></trkpt>
<trkpt lat="53.1742391745" lon="-4.0220853329"><ele>382</ele><time>2012-07-14T14:32:55Z</time></trkpt>
<trkpt lat="53.1742839972" lon="-4.0223014990"><ele>382</ele><time>2012-07-14T14:33:07Z</time></trkpt>
<trkpt lat="53.1743175030" lon="-4.0225348334"><ele>381</ele><time>2012-07-14T14:33:18Z</time></trkpt>
<trkpt lat="53.1743384997" lon="-4.0227725009"><ele>381</ele><time>2012-07-14T14:33:30Z</time></trkpt>
<trkpt lat="53.1743800004" lon="-4.0230033338"><ele>380</ele><time>2012-07-14T14:33:41Z</time></trkpt>
<trkpt lat="53.1744173368" lon="-4.0232301672"><ele>379</ele><time>2012-07-14T14:33:54Z</time></trkpt>
<trkpt lat="53.1744778315" lon="-4.0234478335"><ele>378</ele><time>2012-07-14T14:34:05Z</time></trkpt>
<trkpt lat="53.1745370070" lon="-4.0236690005"><ele>377</ele><time>2012-07-14T14:34:15Z</time></trkpt>
<trkpt lat="53.1745999972" lon="-4.0238699992"><ele>377</ele><time>2012-07-14T14:34:28Z</time></trkpt>
<trkpt lat="53.1746898333" lon="-4.0240491668"><ele>376</ele><time>2012-07-14T14:34:41Z</time></trkpt>
<trkpt lat="53.1745856603" lon="-4.0241963327"><ele>375</ele><time>2012-07-14T14:34:54Z</time></trkpt>
<trkpt lat="53.1744504929" lon="-4.0242156665"><ele>372</ele><time>2012-07-14T14:35:22Z</time></trkpt>
<trkpt lat="53.1745004972" lon="-4.0244386673"><ele>367</ele><time>2012-07-14T14:35:57Z</time></trkpt>
<trkpt lat="53.1746115049" lon="-4.0246221662"><ele>367</ele><time>2012-07-14T14:36:13Z</time></trkpt>
<trkpt lat="53.1747914950" lon="-4.0246461670"><ele>367</ele><time>2012-07-14T14:36:23Z</time></trkpt>
<trkpt lat="53.1746531645" lon="-4.0245876670"><ele>367</ele><time>2012-07-14T14:36:33Z</time></trkpt>
<trkpt lat="53.1746105035" lon="-4.0248051663"><ele>366</ele><time>2012-07-14T14:36:49Z</time></trkpt>
<trkpt lat="53.1745881716" lon="-4.0250319997"><ele>365</ele><time>2012-07-14T14:37:06Z</time></trkpt>
<trkpt lat="53.1746660074" lon="-4.0252291660"><ele>364</ele><time>2012-07-14T14:37:19Z</time></trkpt>
<trkpt lat="53.1746778329" lon="-4.0254598339"><ele>363</ele><time>2012-07-14T14:37:31Z</time></trkpt>
<trkpt lat="53.1746695042" lon="-4.0256995002"><ele>360</ele><time>2012-07-14T14:37:44Z</time></trkpt>
<trkpt lat="53.1746935050" lon="-4.0259365002"><ele>358</ele><time>2012-07-14T14:37:57Z</time></trkpt>
<trkpt lat="53.1747364998" lon="-4.0261583328"><ele>357</ele><time>2012-07-14T14:38:09Z</time></trkpt>
<trkpt lat="53.1747664928" lon="-4.0263924996"><ele>357</ele><time>2012-07-14T14:38:19Z</time></trkpt>
<trkpt lat="53.1748040040" lon="-4.0266088327"><ele>356</ele><time>2012-07-14T14:38:30Z</time></trkpt>
<trkpt lat="53.1748494943" lon="-4.0268331667"><ele>355</ele><time>2012-07-14T14:38:41Z</time></trkpt>
<trkpt lat="53.1748939991" lon="-4.0270486673"><ele>353</ele><time>2012-07-14T14:38:53Z</time></trkpt>
<trkpt lat="53.1749928315" lon="-4.0272021671"><ele>352</ele><time>2012-07-14T14:39:07Z</time></trkpt>
<trkpt lat="53.1751191616" lon="-4.0273009996"><ele>351</ele><time>2012-07-14T14:39:19Z</time></trkpt>
<trkpt lat="53.1751791636" lon="-4.0275188327"><ele>350</ele><time>2012-07-14T14:39:30Z</time></trkpt>
<trkpt lat="53.1752176603" lon="-4.0277366658"><ele>348</ele><time>2012-07-14T14:39:41Z</time></trkpt>
<trkpt lat="53.1753236612" lon="-4.0279003342"><ele>348</ele><time>2012-07-14T14:39:51Z</time></trkpt>
<trkpt lat="53.1754113356" lon="-4.0280901670"><ele>346</ele><time>2012-07-14T14:40:02Z</time></trkpt>
<trkpt lat="53.1754926682" lon="-4.0282751660"><ele>345</ele><time>2012-07-14T14:40:12Z</time></trkpt>
<trkpt lat="53.1755681674" lon="-4.0284636676"><ele>344</ele><time>2012-07-14T14:40:24Z</time></trkpt>
<trkpt lat="53.1756223361" lon="-4.0286753337"><ele>341</ele><time>2012-07-14T14:40:40Z</time></trkpt>
<trkpt lat="53.1756749948" lon="-4.0288853327"><ele>338</ele><time>2012-07-14T14:40:52Z</time></trkpt>
<trkpt lat="53.1755696615" lon="-4.0290328324"><ele>334</ele><time>2012-07-14T14:41:36Z</time></trkpt>
<trkpt lat="53.1755958398" lon="-4.0292613328"><ele>334</ele><time>2012-07-14T14:41:54Z</time></trkpt>
<trkpt lat="53.1755641619" lon="-4.0294826667"><ele>332</ele><time>2012-07-14T14:42:33Z</time></trkpt>
<trkpt lat="53.1756233374" lon="-4.0296940009"><ele>330</ele><time>2012-07-14T14:42:47Z</time></trkpt>
<trkpt lat="53.1755646706" lon="-4.0298981667"><ele>327</ele><time>2012-07-14T14:45:30Z</time></trkpt>
<trkpt lat="53.1755890052" lon="-4.0301304996"><ele>326</ele><time>2012-07-14T14:45:51Z</time></trkpt>
<trkpt lat="53.1756010056" lon="-4.0303593338"><ele>326</ele><time>2012-07-14T14:46:02Z</time></trkpt>
<trkpt lat="53.1755996704" lon="-4.0306035002"><ele>325</ele><time>2012-07-14T14:46:13Z</time></trkpt>
<trkpt lat="53.1755836646" lon="-4.0308345000"><ele>325</ele><time>2012-07-14T14:46:23Z</time></trkpt>
<trkpt lat="53.1755965074" lon="-4.0310639997"><ele>324</ele><time>2012-07-14T14:46:33Z</time></trkpt>
<trkpt lat="53.1755780061" lon="-4.0312921663"><ele>321</ele><time>2012-07-14T14:47:05Z</time></trkpt>
<trkpt lat="53.1755578359" lon="-4.0315153340"><ele>320</ele><time>2012-07-14T14:47:24Z</time></trkpt>
<trkpt lat="53.1755306721" lon="-4.0317391674"><ele>319</ele><time>2012-07-14T14:47:36Z</time></trkpt>
<trkpt lat="53.1755013307" lon="-4.0319693327"><ele>319</ele><time>2012-07-14T14:47:48Z</time></trkpt>
<trkpt lat="53.1754153411" lon="-4.0321501672"><ele>318</ele><time>2012-07-14T14:48:01Z</time></trkpt>
<trkpt lat="53.1753753344" lon="-4.0323666672"><ele>317</ele><time>2012-07-14T14:48:12Z</time></trkpt>
<trkpt lat="53.1753125032" lon="-4.0325779994"><ele>316</ele><time>2012-07-14T14:48:24Z</time></trkpt>
<trkpt lat="53.1752490044" lon="-4.0328023334"><ele>314</ele><time>2012-07-14T14:48:35Z</time></trkpt>
<trkpt lat="53.1752018293" lon="-4.0330131670"><ele>313</ele><time>2012-07-14T14:48:45Z</time></trkpt>
<trkpt lat="53.1751949946" lon="-4.0332418342"><ele>312</ele><time>2012-07-14T14:48:56Z</time></trkpt>
<trkpt lat="53.1751841704" lon="-4.0334856669"><ele>310</ele><time>2012-07-14T14:49:08Z</time></trkpt>
<trkpt lat="53.1751450062" lon="-4.0337088346"><ele>309</ele><time>2012-07-14T14:49:18Z</time></trkpt>
<trkpt lat="53.1751063347" lon="-4.0339340011"><ele>308</ele><time>2012-07-14T14:49:28Z</time></trkpt>
<trkpt lat="53.1750866731" lon="-4.0341576656"><ele>306</ele><time>2012-07-14T14:49:40Z</time></trkpt>
<trkpt lat="53.1750303268" lon="-4.0343628327"><ele>302</ele><time>2012-07-14T14:50:11Z</time></trkpt>
<trkpt lat="53.1750366688" lon="-4.0345903317"><ele>300</ele><time>2012-07-14T14:50:27Z</time></trkpt>
<trkpt lat="53.1750250022" lon="-4.0348163327"><ele>299</ele><time>2012-07-14T14:50:45Z</time></trkpt>
<trkpt lat="53.1750760078" lon="-4.0350379984"><ele>298</ele><time>2012-07-14T14:51:00Z</time></trkpt>
<trkpt lat="53.1749983311" lon="-4.0352303346"><ele>296</ele><time>2012-07-14T14:51:20Z</time></trkpt>
<trkpt lat="53.1749071598" lon="-4.0354025006"><ele>291</ele><time>2012-07-14T14:52:21Z</time></trkpt>
<trkpt lat="53.1748309930" lon="-4.0355991681"><ele>290</ele><time>2012-07-14T14:52:37Z</time></trkpt>
<trkpt lat="53.1747371674" lon="-4.0357764999"><ele>287</ele><time>2012-07-14T14:52:50Z</time></trkpt>
<trkpt lat="53.1746361732" lon="-4.0359303315"><ele>284</ele><time>2012-07-14T14:53:07Z</time></trkpt>
<trkpt lat="53.1745548407" lon="-4.0361201684"><ele>284</ele><time>2012-07-14T14:53:20Z</time></trkpt>
<trkpt lat="53.1744561672" lon="-4.0362844984"><ele>284</ele><time>2012-07-14T14:53:31Z</time></trkpt>
<trkpt lat="53.1743433317" lon="-4.0364139994"><ele>283</ele><time>2012-07-14T14:53:42Z</time></trkpt>
<trkpt lat="53.1742233276" lon="-4.0365326683"><ele>283</ele><time>2012-07-14T14:53:53Z</time></trkpt>
<trkpt lat="53.1740931670" lon="-4.0366581678"><ele>282</ele><time>2012-07-14T14:54:03Z</time></trkpt>
<trkpt lat="53.1739720027" lon="-4.0367708325"><ele>281</ele><time>2012-07-14T14:54:15Z</time></trkpt>
<trkpt lat="53.1738728364" lon="-4.0369289994"><ele>280</ele><time>2012-07-14T14:54:28Z</time></trkpt>
<trkpt lat="53.1738200029" lon="-4.0371470014"><ele>276</ele><time>2012-07-14T14:54:39Z</time></trkpt>
<trkpt lat="53.1737521648" lon="-4.0373461684"><ele>273</ele><time>2012-07-14T14:54:52Z</time></trkpt>
<trkpt lat="53.1737391631" lon="-4.0375724991"><ele>272</ele><time>2012-07-14T14:55:06Z</time></trkpt>
<trkpt lat="53.1737168312" lon="-4.0378034989"><ele>271</ele><time>2012-07-14T14:55:25Z</time></trkpt>
<trkpt lat="53.1736841679" lon="-4.0380256653"><ele>271</ele><time>2012-07-14T14:55:48Z</time></trkpt>
<trkpt lat="53.1737685045" lon="-4.0382163326"><ele>268</ele><time>2012-07-14T14:56:44Z</time></trkpt>
<trkpt lat="53.1738983313" lon="-4.0382983327"><ele>268</ele><time>2012-07-14T14:56:56Z</time></trkpt>
<trkpt lat="53.1740216732" lon="-4.0383968314"><ele>267</ele><time>2012-07-14T14:57:09Z</time></trkpt>
<trkpt lat="53.1741091728" lon="-4.0385836681"><ele>266</ele><time>2012-07-14T14:57:22Z</time></trkpt>
<trkpt lat="53.1741336664" lon="-4.0388096650"><ele>264</ele><time>2012-07-14T14:57:36Z</time></trkpt>
<trkpt lat="53.1741565069" lon="-4.0390331666"><ele>261</ele><time>2012-07-14T14:57:48Z</time></trkpt>
<trkpt lat="53.1741563320" lon="-4.0392615000"><ele>259</ele><time>2012-07-14T14:58:03Z</time></trkpt>
<trkpt lat="53.1741218408" lon="-4.0394798319"><ele>258</ele><time>2012-07-14T14:58:15Z</time></trkpt>
<trkpt lat="53.1741270065" lon="-4.0397156676"><ele>257</ele><time>2012-07-14T14:58:26Z</time></trkpt>
<trkpt lat="53.1740259965" lon="-4.0398979982"><ele>256</ele><time>2012-07-14T14:58:36Z</time></trkpt>
<trkpt lat="53.1738875071" lon="-4.0399129987"><ele>254</ele><time>2012-07-14T14:58:47Z</time></trkpt>
<trkpt lat="53.1737689972" lon="-4.0400371671"><ele>253</ele><time>2012-07-14T14:59:12Z</time></trkpt>
<trkpt lat="53.1737714926" lon="-4.0402726650"><ele>253</ele><time>2012-07-14T14:59:27Z</time></trkpt>
<trkpt lat="53.1738221645" lon="-4.0404855013"><ele>252</ele><time>2012-07-14T14:59:40Z</time></trkpt>
<trkpt lat="53.1737754981" lon="-4.0406965017"><ele>250</ele><time>2012-07-14T14:59:52Z</time></trkpt>
<trkpt lat="53.1736460050" lon="-4.0408704996"><ele>247</ele><time>2012-07-14T15:00:02Z</time></trkpt>
<trkpt lat="53.1737433275" lon="-4.0410265009"><ele>243</ele><time>2012-07-14T15:00:19Z</time></trkpt>
<trkpt lat="53.1738753319" lon="-4.0411586682"><ele>242</ele><time>2012-07-14T15:00:29Z</time></trkpt>
<trkpt lat="53.1740084966" lon="-4.0411239982"><ele>242</ele><time>2012-07-14T15:01:03Z</time></trkpt>
<trkpt lat="53.1741038322" lon="-4.0412968318"><ele>241</ele><time>2012-07-14T15:01:26Z</time></trkpt>
<trkpt lat="53.1742396673" lon="-4.0413690011"><ele>241</ele><time>2012-07-14T15:01:37Z</time></trkpt>
<trkpt lat="53.1743486722" lon="-4.0415010015"><ele>241</ele><time>2012-07-14T15:01:52Z</time></trkpt>
<trkpt lat="53.1743954976" lon="-4.0417446653"><ele>240</ele><time>2012-07-14T15:02:04Z</time></trkpt>
<trkpt lat="53.1744689941" lon="-4.0419529994"><ele>240</ele><time>2012-07-14T15:02:14Z</time></trkpt>
<trkpt lat="53.1744900068" lon="-4.0421786666"><ele>239</ele><time>2012-07-14T15:02:24Z</time></trkpt>
<trkpt lat="53.1745598316" lon="-4.0423803329"><ele>237</ele><time>2012-07-14T15:02:39Z</time></trkpt>
<trkpt lat="53.1746523380" lon="-4.0425480008"><ele>235</ele><time>2012-07-14T15:02:52Z</time></trkpt>
<trkpt lat="53.1747220039" lon="-4.0427693327"><ele>235</ele><time>2012-07-14T15:03:07Z</time></trkpt>
<trkpt lat="53.1748068333" lon="-4.0429483334"><ele>234</ele><time>2012-07-14T15:03:17Z</time></trkpt>
<trkpt lat="53.1748935064" lon="-4.0431229989"><ele>233</ele><time>2012-07-14T15:03:27Z</time></trkpt>
<trkpt lat="53.1749458313" lon="-4.0433624983"><ele>232</ele><time>2012-07-14T15:03:37Z</time></trkpt>
<trkpt lat="53.1750031630" lon="-4.0435728351"><ele>231</ele><time>2012-07-14T15:03:47Z</time></trkpt>
<trkpt lat="53.1750353336" lon="-4.0437908332"><ele>231</ele><time>2012-07-14T15:03:59Z</time></trkpt>
<trkpt lat="53.1750716686" lon="-4.0440414985"><ele>231</ele><time>2012-07-14T15:04:09Z</time></trkpt>
<trkpt lat="53.1751833280" lon="-4.0442376653"><ele>230</ele><time>2012-07-14T15:04:19Z</time></trkpt>
<trkpt lat="53.1752539953" lon="-4.0444445014"><ele>229</ele><time>2012-07-14T15:04:30Z</time></trkpt>
<trkpt lat="53.1753471692" lon="-4.0446153323"><ele>229</ele><time>2012-07-14T15:04:40Z</time></trkpt>
<trkpt lat="53.1753619989" lon="-4.0448409994"><ele>228</ele><time>2012-07-14T15:04:51Z</time></trkpt>
<trkpt lat="53.1754675070" lon="-4.0450424989"><ele>227</ele><time>2012-07-14T15:05:01Z</time></trkpt>
<trkpt lat="53.1754786650" lon="-4.0452739994"><ele>227</ele><time>2012-07-14T15:05:11Z</time></trkpt>
<trkpt lat="53.1755186717" lon="-4.0455071648"><ele>226</ele><time>2012-07-14T15:05:21Z</time></trkpt>
<trkpt lat="53.1755841732" lon="-4.0457073331"><ele>225</ele><time>2012-07-14T15:05:32Z</time></trkpt>
<trkpt lat="53.1756863276" lon="-4.0459003329"><ele>224</ele><time>2012-07-14T15:05:43Z</time></trkpt>
<trkpt lat="53.1758031686" lon="-4.0460221648"><ele>223</ele><time>2012-07-14T15:05:54Z</time></trkpt>
<trkpt lat="53.1759016673" lon="-4.0461911678"><ele>222</ele><time>2012-07-14T15:06:05Z</time></trkpt>
<trkpt lat="53.1760088285" lon="-4.0463380019"><ele>221</ele><time>2012-07-14T15:06:15Z</time></trkpt>
<trkpt lat="53.1761356672" lon="-4.0464739998"><ele>220</ele><time>2012-07-14T15:06:25Z</time></trkpt>
<trkpt lat="53.1762111664" lon="-4.0466686686"><ele>220</ele><time>2012-07-14T15:06:37Z</time></trkpt>
<trkpt lat="53.1763311704" lon="-4.0467876673"><ele>219</ele><time>2012-07-14T15:06:47Z</time></trkpt>
<trkpt lat="53.1764538288" lon="-4.0469066660"><ele>219</ele><time>2012-07-14T15:06:57Z</time></trkpt>
<trkpt lat="53.1765620073" lon="-4.0470481674"><ele>219</ele><time>2012-07-14T15:07:08Z</time></trkpt>
<trkpt lat="53.1766878287" lon="-4.0471330007"><ele>218</ele><time>2012-07-14T15:07:18Z</time></trkpt>
<trkpt lat="53.1767933369" lon="-4.0472738345"><ele>218</ele><time>2012-07-14T15:07:30Z</time></trkpt>
<trkpt lat="53.1769014994" lon="-4.0474184990"><ele>218</ele><time>2012-07-14T15:07:40Z</time></trkpt>
<trkpt lat="53.1770261606" lon="-4.0475461682"><ele>216</ele><time>2012-07-14T15:07:51Z</time></trkpt>
<trkpt lat="53.1771508376" lon="-4.0476734996"><ele>215</ele><time>2012-07-14T15:08:03Z</time></trkpt>
<trkpt lat="53.1772621632" lon="-4.0478116671"><ele>217</ele><time>2012-07-14T15:08:16Z</time></trkpt>
</trkseg>
</trk>
</gpx>